<?xml version="1.0" encoding="UTF-8" standalone="no" ?>
<gpx xmlns="http://www.topografix.com/GPX/1/1" creator="MapSource 6.11.6" version="1.1" xmlns:xsi="http://www.w3.org/2001/XMLSchema-instance" xsi:schemaLocation="http://www.topografix.com/GPX/1/1 http://www.topografix.com/GPX/1/1/gpx.xsd">

  <metadata>
    <link href="http://www.garmin.com">
      <text>Garmin International</text>
    </link>
    <time>2008-10-23T19:39:12Z</time>
    <bounds maxlat="50.718354" maxlon="6.492516" minlat="50.652798" minlon="6.439589"/>
  </metadata>

  <trk>
    <name>Obermaubach-Hausen</name>
    <extensions>
      <gpxx:TrackExtension xmlns:gpxx="http://www.garmin.com/xmlschemas/GpxExtensions/v3" xmlns:xsi="http://www.w3.org/2001/XMLSchema-instance" xsi:schemaLocation="http://www.garmin.com/xmlschemas/GpxExtensions/v3 http://www.garmin.com/xmlschemas/GpxExtensions/v3/GpxExtensionsv3.xsd">
        <gpxx:DisplayColor>White</gpxx:DisplayColor>
      </gpxx:TrackExtension>
    </extensions>
    <trkseg>
      <trkpt lat="50.718209" lon="6.448623">
        <ele>219.799000</ele>
        <time>2008-10-23T21:42:02Z</time>
      </trkpt>
      <trkpt lat="50.718322" lon="6.448572">
        <ele>219.318000</ele>
        <time>2008-10-23T21:42:12Z</time>
      </trkpt>
      <trkpt lat="50.718321" lon="6.448477">
        <ele>218.357000</ele>
        <time>2008-10-23T21:42:17Z</time>
      </trkpt>
      <trkpt lat="50.718286" lon="6.448395">
        <ele>219.318000</ele>
        <time>2008-10-23T21:42:23Z</time>
      </trkpt>
      <trkpt lat="50.718295" lon="6.448307">
        <ele>219.318000</ele>
        <time>2008-10-23T21:42:28Z</time>
      </trkpt>
      <trkpt lat="50.718310" lon="6.448218">
        <ele>218.357000</ele>
        <time>2008-10-23T21:42:33Z</time>
      </trkpt>
      <trkpt lat="50.718345" lon="6.448089">
        <ele>217.395000</ele>
        <time>2008-10-23T21:42:41Z</time>
      </trkpt>
      <trkpt lat="50.718295" lon="6.448198">
        <ele>216.915000</ele>
        <time>2008-10-23T21:42:48Z</time>
      </trkpt>
      <trkpt lat="50.718354" lon="6.447964">
        <ele>216.434000</ele>
        <time>2008-10-23T21:43:02Z</time>
      </trkpt>
      <trkpt lat="50.718339" lon="6.447976">
        <ele>214.992000</ele>
        <time>2008-10-23T21:43:04Z</time>
      </trkpt>
      <trkpt lat="50.718227" lon="6.447834">
        <ele>213.069000</ele>
        <time>2008-10-23T21:43:17Z</time>
      </trkpt>
      <trkpt lat="50.718138" lon="6.447571">
        <ele>210.185000</ele>
        <time>2008-10-23T21:43:33Z</time>
      </trkpt>
      <trkpt lat="50.717910" lon="6.447308">
        <ele>211.627000</ele>
        <time>2008-10-23T21:43:58Z</time>
      </trkpt>
      <trkpt lat="50.717883" lon="6.447282">
        <ele>212.108000</ele>
        <time>2008-10-23T21:44:01Z</time>
      </trkpt>
      <trkpt lat="50.717787" lon="6.447156">
        <ele>212.589000</ele>
        <time>2008-10-23T21:44:12Z</time>
      </trkpt>
      <trkpt lat="50.717680" lon="6.447059">
        <ele>212.589000</ele>
        <time>2008-10-23T21:44:23Z</time>
      </trkpt>
      <trkpt lat="50.717503" lon="6.446923">
        <ele>211.627000</ele>
        <time>2008-10-23T21:44:40Z</time>
      </trkpt>
      <trkpt lat="50.717436" lon="6.446925">
        <ele>211.147000</ele>
        <time>2008-10-23T21:44:46Z</time>
      </trkpt>
      <trkpt lat="50.717256" lon="6.447108">
        <ele>209.705000</ele>
        <time>2008-10-23T21:45:05Z</time>
      </trkpt>
      <trkpt lat="50.717215" lon="6.447167">
        <ele>209.224000</ele>
        <time>2008-10-23T21:45:10Z</time>
      </trkpt>
      <trkpt lat="50.717080" lon="6.447287">
        <ele>208.743000</ele>
        <time>2008-10-23T21:45:24Z</time>
      </trkpt>
      <trkpt lat="50.716936" lon="6.447382">
        <ele>207.782000</ele>
        <time>2008-10-23T21:45:38Z</time>
      </trkpt>
      <trkpt lat="50.716729" lon="6.447621">
        <ele>205.859000</ele>
        <time>2008-10-23T21:46:00Z</time>
      </trkpt>
      <trkpt lat="50.716641" lon="6.447754">
        <ele>205.859000</ele>
        <time>2008-10-23T21:46:11Z</time>
      </trkpt>
      <trkpt lat="50.716603" lon="6.447783">
        <ele>207.301000</ele>
        <time>2008-10-23T21:46:15Z</time>
      </trkpt>
      <trkpt lat="50.716357" lon="6.448057">
        <ele>206.821000</ele>
        <time>2008-10-23T21:46:41Z</time>
      </trkpt>
      <trkpt lat="50.716240" lon="6.448173">
        <ele>206.340000</ele>
        <time>2008-10-23T21:46:54Z</time>
      </trkpt>
      <trkpt lat="50.716033" lon="6.448372">
        <ele>206.821000</ele>
        <time>2008-10-23T21:47:15Z</time>
      </trkpt>
      <trkpt lat="50.715995" lon="6.448406">
        <ele>204.898000</ele>
        <time>2008-10-23T21:47:19Z</time>
      </trkpt>
      <trkpt lat="50.715928" lon="6.448450">
        <ele>204.417000</ele>
        <time>2008-10-23T21:47:25Z</time>
      </trkpt>
      <trkpt lat="50.715763" lon="6.448550">
        <ele>205.379000</ele>
        <time>2008-10-23T21:47:41Z</time>
      </trkpt>
      <trkpt lat="50.715626" lon="6.448698">
        <ele>206.340000</ele>
        <time>2008-10-23T21:47:56Z</time>
      </trkpt>
      <trkpt lat="50.715448" lon="6.448830">
        <ele>206.821000</ele>
        <time>2008-10-23T21:48:13Z</time>
      </trkpt>
      <trkpt lat="50.715345" lon="6.448801">
        <ele>205.859000</ele>
        <time>2008-10-23T21:48:22Z</time>
      </trkpt>
      <trkpt lat="50.715160" lon="6.448547">
        <ele>205.859000</ele>
        <time>2008-10-23T21:48:44Z</time>
      </trkpt>
      <trkpt lat="50.715083" lon="6.448464">
        <ele>207.782000</ele>
        <time>2008-10-23T21:48:52Z</time>
      </trkpt>
      <trkpt lat="50.714958" lon="6.448292">
        <ele>207.782000</ele>
        <time>2008-10-23T21:49:07Z</time>
      </trkpt>
      <trkpt lat="50.714787" lon="6.448081">
        <ele>208.743000</ele>
        <time>2008-10-23T21:49:26Z</time>
      </trkpt>
      <trkpt lat="50.714712" lon="6.447979">
        <ele>208.743000</ele>
        <time>2008-10-23T21:49:35Z</time>
      </trkpt>
      <trkpt lat="50.714614" lon="6.447836">
        <ele>210.666000</ele>
        <time>2008-10-23T21:49:47Z</time>
      </trkpt>
      <trkpt lat="50.714592" lon="6.447811">
        <ele>211.627000</ele>
        <time>2008-10-23T21:49:49Z</time>
      </trkpt>
      <trkpt lat="50.714441" lon="6.447723">
        <ele>212.108000</ele>
        <time>2008-10-23T21:50:03Z</time>
      </trkpt>
      <trkpt lat="50.714257" lon="6.447598">
        <ele>211.627000</ele>
        <time>2008-10-23T21:50:21Z</time>
      </trkpt>
      <trkpt lat="50.714191" lon="6.447512">
        <ele>211.627000</ele>
        <time>2008-10-23T21:50:28Z</time>
      </trkpt>
      <trkpt lat="50.714139" lon="6.447464">
        <ele>211.627000</ele>
        <time>2008-10-23T21:50:34Z</time>
      </trkpt>
      <trkpt lat="50.714077" lon="6.447350">
        <ele>210.666000</ele>
        <time>2008-10-23T21:50:42Z</time>
      </trkpt>
      <trkpt lat="50.714046" lon="6.447259">
        <ele>209.705000</ele>
        <time>2008-10-23T21:50:48Z</time>
      </trkpt>
      <trkpt lat="50.713873" lon="6.447023">
        <ele>208.743000</ele>
        <time>2008-10-23T21:51:08Z</time>
      </trkpt>
      <trkpt lat="50.713730" lon="6.446768">
        <ele>208.743000</ele>
        <time>2008-10-23T21:51:27Z</time>
      </trkpt>
      <trkpt lat="50.713623" lon="6.446561">
        <ele>210.185000</ele>
        <time>2008-10-23T21:51:42Z</time>
      </trkpt>
      <trkpt lat="50.713476" lon="6.446314">
        <ele>209.705000</ele>
        <time>2008-10-23T21:52:01Z</time>
      </trkpt>
      <trkpt lat="50.713331" lon="6.446115">
        <ele>209.705000</ele>
        <time>2008-10-23T21:52:18Z</time>
      </trkpt>
      <trkpt lat="50.713191" lon="6.445882">
        <ele>208.743000</ele>
        <time>2008-10-23T21:52:36Z</time>
      </trkpt>
      <trkpt lat="50.713038" lon="6.445748">
        <ele>207.301000</ele>
        <time>2008-10-23T21:52:52Z</time>
      </trkpt>
      <trkpt lat="50.712858" lon="6.445473">
        <ele>206.340000</ele>
        <time>2008-10-23T21:53:14Z</time>
      </trkpt>
      <trkpt lat="50.712690" lon="6.445238">
        <ele>206.821000</ele>
        <time>2008-10-23T21:53:34Z</time>
      </trkpt>
      <trkpt lat="50.712539" lon="6.445028">
        <ele>206.821000</ele>
        <time>2008-10-23T21:53:51Z</time>
      </trkpt>
      <trkpt lat="50.712385" lon="6.444858">
        <ele>206.821000</ele>
        <time>2008-10-23T21:54:08Z</time>
      </trkpt>
      <trkpt lat="50.712200" lon="6.444701">
        <ele>207.301000</ele>
        <time>2008-10-23T21:54:27Z</time>
      </trkpt>
      <trkpt lat="50.712056" lon="6.444489">
        <ele>206.821000</ele>
        <time>2008-10-23T21:54:44Z</time>
      </trkpt>
      <trkpt lat="50.711885" lon="6.444318">
        <ele>206.821000</ele>
        <time>2008-10-23T21:55:02Z</time>
      </trkpt>
      <trkpt lat="50.711762" lon="6.444204">
        <ele>205.859000</ele>
        <time>2008-10-23T21:55:14Z</time>
      </trkpt>
      <trkpt lat="50.711566" lon="6.444032">
        <ele>206.821000</ele>
        <time>2008-10-23T21:55:34Z</time>
      </trkpt>
      <trkpt lat="50.711202" lon="6.443685">
        <ele>207.301000</ele>
        <time>2008-10-23T21:56:12Z</time>
      </trkpt>
      <trkpt lat="50.711022" lon="6.443570">
        <ele>209.705000</ele>
        <time>2008-10-23T21:56:29Z</time>
      </trkpt>
      <trkpt lat="50.710966" lon="6.443521">
        <ele>209.705000</ele>
        <time>2008-10-23T21:56:35Z</time>
      </trkpt>
      <trkpt lat="50.710720" lon="6.443050">
        <ele>211.147000</ele>
        <time>2008-10-23T21:57:09Z</time>
      </trkpt>
      <trkpt lat="50.710544" lon="6.442893">
        <ele>212.108000</ele>
        <time>2008-10-23T21:57:27Z</time>
      </trkpt>
      <trkpt lat="50.710456" lon="6.442834">
        <ele>213.069000</ele>
        <time>2008-10-23T21:57:35Z</time>
      </trkpt>
      <trkpt lat="50.710386" lon="6.442724">
        <ele>214.031000</ele>
        <time>2008-10-23T21:57:44Z</time>
      </trkpt>
      <trkpt lat="50.710373" lon="6.442690">
        <ele>213.069000</ele>
        <time>2008-10-23T21:57:46Z</time>
      </trkpt>
      <trkpt lat="50.710235" lon="6.442533">
        <ele>213.069000</ele>
        <time>2008-10-23T21:58:01Z</time>
      </trkpt>
      <trkpt lat="50.710116" lon="6.442428">
        <ele>211.627000</ele>
        <time>2008-10-23T21:58:13Z</time>
      </trkpt>
      <trkpt lat="50.709963" lon="6.442286">
        <ele>211.627000</ele>
        <time>2008-10-23T21:58:29Z</time>
      </trkpt>
      <trkpt lat="50.709786" lon="6.442068">
        <ele>212.589000</ele>
        <time>2008-10-23T21:58:49Z</time>
      </trkpt>
      <trkpt lat="50.709674" lon="6.441934">
        <ele>210.185000</ele>
        <time>2008-10-23T21:59:01Z</time>
      </trkpt>
      <trkpt lat="50.709478" lon="6.441723">
        <ele>211.627000</ele>
        <time>2008-10-23T21:59:22Z</time>
      </trkpt>
      <trkpt lat="50.709338" lon="6.441628">
        <ele>210.666000</ele>
        <time>2008-10-23T21:59:36Z</time>
      </trkpt>
      <trkpt lat="50.709126" lon="6.441448">
        <ele>211.147000</ele>
        <time>2008-10-23T21:59:57Z</time>
      </trkpt>
      <trkpt lat="50.709003" lon="6.441352">
        <ele>211.627000</ele>
        <time>2008-10-23T22:00:09Z</time>
      </trkpt>
      <trkpt lat="50.708860" lon="6.441291">
        <ele>212.108000</ele>
        <time>2008-10-23T22:00:22Z</time>
      </trkpt>
      <trkpt lat="50.708695" lon="6.441169">
        <ele>211.147000</ele>
        <time>2008-10-23T22:00:38Z</time>
      </trkpt>
      <trkpt lat="50.708506" lon="6.441070">
        <ele>209.224000</ele>
        <time>2008-10-23T22:00:56Z</time>
      </trkpt>
      <trkpt lat="50.708261" lon="6.440950">
        <ele>209.224000</ele>
        <time>2008-10-23T22:01:19Z</time>
      </trkpt>
      <trkpt lat="50.707973" lon="6.440897">
        <ele>206.340000</ele>
        <time>2008-10-23T22:01:44Z</time>
      </trkpt>
      <trkpt lat="50.707434" lon="6.440654">
        <ele>202.975000</ele>
        <time>2008-10-23T22:02:34Z</time>
      </trkpt>
      <trkpt lat="50.707160" lon="6.440463">
        <ele>202.014000</ele>
        <time>2008-10-23T22:03:00Z</time>
      </trkpt>
      <trkpt lat="50.706336" lon="6.439837">
        <ele>200.572000</ele>
        <time>2008-10-23T22:04:21Z</time>
      </trkpt>
      <trkpt lat="50.706034" lon="6.439678">
        <ele>197.688000</ele>
        <time>2008-10-23T22:04:49Z</time>
      </trkpt>
      <trkpt lat="50.705757" lon="6.439589">
        <ele>198.169000</ele>
        <time>2008-10-23T22:05:14Z</time>
      </trkpt>
      <trkpt lat="50.705730" lon="6.439596">
        <ele>198.169000</ele>
        <time>2008-10-23T22:05:17Z</time>
      </trkpt>
      <trkpt lat="50.705497" lon="6.439591">
        <ele>197.688000</ele>
        <time>2008-10-23T22:05:37Z</time>
      </trkpt>
      <trkpt lat="50.705362" lon="6.439621">
        <ele>197.208000</ele>
        <time>2008-10-23T22:05:49Z</time>
      </trkpt>
      <trkpt lat="50.705128" lon="6.439776">
        <ele>197.688000</ele>
        <time>2008-10-23T22:06:12Z</time>
      </trkpt>
      <trkpt lat="50.704796" lon="6.440111">
        <ele>198.169000</ele>
        <time>2008-10-23T22:06:47Z</time>
      </trkpt>
      <trkpt lat="50.704750" lon="6.440272">
        <ele>198.169000</ele>
        <time>2008-10-23T22:06:57Z</time>
      </trkpt>
      <trkpt lat="50.704557" lon="6.440496">
        <ele>198.650000</ele>
        <time>2008-10-23T22:07:18Z</time>
      </trkpt>
      <trkpt lat="50.704412" lon="6.440808">
        <ele>197.208000</ele>
        <time>2008-10-23T22:07:39Z</time>
      </trkpt>
      <trkpt lat="50.704235" lon="6.440962">
        <ele>196.727000</ele>
        <time>2008-10-23T22:07:57Z</time>
      </trkpt>
      <trkpt lat="50.703910" lon="6.441499">
        <ele>198.169000</ele>
        <time>2008-10-23T22:08:39Z</time>
      </trkpt>
      <trkpt lat="50.703764" lon="6.441740">
        <ele>197.688000</ele>
        <time>2008-10-23T22:08:57Z</time>
      </trkpt>
      <trkpt lat="50.703613" lon="6.441917">
        <ele>198.650000</ele>
        <time>2008-10-23T22:09:14Z</time>
      </trkpt>
      <trkpt lat="50.703480" lon="6.442042">
        <ele>198.650000</ele>
        <time>2008-10-23T22:09:28Z</time>
      </trkpt>
      <trkpt lat="50.703431" lon="6.442123">
        <ele>197.688000</ele>
        <time>2008-10-23T22:09:34Z</time>
      </trkpt>
      <trkpt lat="50.703384" lon="6.442178">
        <ele>199.130000</ele>
        <time>2008-10-23T22:09:39Z</time>
      </trkpt>
      <trkpt lat="50.703362" lon="6.442190">
        <ele>199.130000</ele>
        <time>2008-10-23T22:09:41Z</time>
      </trkpt>
      <trkpt lat="50.703287" lon="6.442283">
        <ele>199.611000</ele>
        <time>2008-10-23T22:09:50Z</time>
      </trkpt>
      <trkpt lat="50.703144" lon="6.442422">
        <ele>200.092000</ele>
        <time>2008-10-23T22:10:05Z</time>
      </trkpt>
      <trkpt lat="50.702797" lon="6.442836">
        <ele>202.975000</ele>
        <time>2008-10-23T22:10:43Z</time>
      </trkpt>
      <trkpt lat="50.702645" lon="6.443030">
        <ele>205.379000</ele>
        <time>2008-10-23T22:11:00Z</time>
      </trkpt>
      <trkpt lat="50.702491" lon="6.443262">
        <ele>207.301000</ele>
        <time>2008-10-23T22:11:19Z</time>
      </trkpt>
      <trkpt lat="50.702102" lon="6.444171">
        <ele>207.301000</ele>
        <time>2008-10-23T22:12:21Z</time>
      </trkpt>
      <trkpt lat="50.701988" lon="6.444552">
        <ele>206.821000</ele>
        <time>2008-10-23T22:12:44Z</time>
      </trkpt>
      <trkpt lat="50.701975" lon="6.444577">
        <ele>206.821000</ele>
        <time>2008-10-23T22:12:46Z</time>
      </trkpt>
      <trkpt lat="50.701932" lon="6.444630">
        <ele>205.379000</ele>
        <time>2008-10-23T22:12:51Z</time>
      </trkpt>
      <trkpt lat="50.701880" lon="6.444724">
        <ele>205.859000</ele>
        <time>2008-10-23T22:12:58Z</time>
      </trkpt>
      <trkpt lat="50.701786" lon="6.444831">
        <ele>203.937000</ele>
        <time>2008-10-23T22:13:08Z</time>
      </trkpt>
      <trkpt lat="50.701579" lon="6.445131">
        <ele>202.014000</ele>
        <time>2008-10-23T22:13:33Z</time>
      </trkpt>
      <trkpt lat="50.701316" lon="6.445622">
        <ele>200.572000</ele>
        <time>2008-10-23T22:14:09Z</time>
      </trkpt>
      <trkpt lat="50.701250" lon="6.445826">
        <ele>200.092000</ele>
        <time>2008-10-23T22:14:22Z</time>
      </trkpt>
      <trkpt lat="50.701123" lon="6.446400">
        <ele>201.534000</ele>
        <time>2008-10-23T22:14:56Z</time>
      </trkpt>
      <trkpt lat="50.701000" lon="6.447390">
        <ele>198.650000</ele>
        <time>2008-10-23T22:15:52Z</time>
      </trkpt>
      <trkpt lat="50.700880" lon="6.448041">
        <ele>197.688000</ele>
        <time>2008-10-23T22:16:30Z</time>
      </trkpt>
      <trkpt lat="50.700702" lon="6.448299">
        <ele>196.246000</ele>
        <time>2008-10-23T22:16:52Z</time>
      </trkpt>
      <trkpt lat="50.700677" lon="6.448404">
        <ele>196.246000</ele>
        <time>2008-10-23T22:16:58Z</time>
      </trkpt>
      <trkpt lat="50.700634" lon="6.448727">
        <ele>195.285000</ele>
        <time>2008-10-23T22:17:16Z</time>
      </trkpt>
      <trkpt lat="50.700553" lon="6.449224">
        <ele>194.804000</ele>
        <time>2008-10-23T22:17:45Z</time>
      </trkpt>
      <trkpt lat="50.700391" lon="6.449675">
        <ele>196.727000</ele>
        <time>2008-10-23T22:18:14Z</time>
      </trkpt>
      <trkpt lat="50.700195" lon="6.449650">
        <ele>197.688000</ele>
        <time>2008-10-23T22:18:31Z</time>
      </trkpt>
      <trkpt lat="50.700008" lon="6.449700">
        <ele>196.246000</ele>
        <time>2008-10-23T22:18:48Z</time>
      </trkpt>
      <trkpt lat="50.699878" lon="6.449756">
        <ele>195.285000</ele>
        <time>2008-10-23T22:19:00Z</time>
      </trkpt>
      <trkpt lat="50.699812" lon="6.450692">
        <ele>194.324000</ele>
        <time>2008-10-23T22:19:53Z</time>
      </trkpt>
      <trkpt lat="50.699859" lon="6.450808">
        <ele>194.324000</ele>
        <time>2008-10-23T22:20:01Z</time>
      </trkpt>
      <trkpt lat="50.699907" lon="6.450880">
        <ele>194.324000</ele>
        <time>2008-10-23T22:20:06Z</time>
      </trkpt>
      <trkpt lat="50.700076" lon="6.451136">
        <ele>194.324000</ele>
        <time>2008-10-23T22:20:27Z</time>
      </trkpt>
      <trkpt lat="50.700129" lon="6.451744">
        <ele>193.843000</ele>
        <time>2008-10-23T22:21:01Z</time>
      </trkpt>
      <trkpt lat="50.700150" lon="6.452112">
        <ele>194.324000</ele>
        <time>2008-10-23T22:21:22Z</time>
      </trkpt>
      <trkpt lat="50.700237" lon="6.452438">
        <ele>193.843000</ele>
        <time>2008-10-23T22:21:42Z</time>
      </trkpt>
      <trkpt lat="50.700282" lon="6.452455">
        <ele>193.843000</ele>
        <time>2008-10-23T22:21:46Z</time>
      </trkpt>
      <trkpt lat="50.700411" lon="6.452593">
        <ele>193.843000</ele>
        <time>2008-10-23T22:22:00Z</time>
      </trkpt>
      <trkpt lat="50.700402" lon="6.452774">
        <ele>193.362000</ele>
        <time>2008-10-23T22:22:10Z</time>
      </trkpt>
      <trkpt lat="50.700449" lon="6.453143">
        <ele>193.843000</ele>
        <time>2008-10-23T22:22:31Z</time>
      </trkpt>
      <trkpt lat="50.700473" lon="6.453424">
        <ele>193.843000</ele>
        <time>2008-10-23T22:22:47Z</time>
      </trkpt>
      <trkpt lat="50.700387" lon="6.454130">
        <ele>193.843000</ele>
        <time>2008-10-23T22:23:27Z</time>
      </trkpt>
      <trkpt lat="50.700402" lon="6.454207">
        <ele>193.843000</ele>
        <time>2008-10-23T22:23:32Z</time>
      </trkpt>
      <trkpt lat="50.700350" lon="6.454592">
        <ele>194.324000</ele>
        <time>2008-10-23T22:23:54Z</time>
      </trkpt>
      <trkpt lat="50.700350" lon="6.454644">
        <ele>193.843000</ele>
        <time>2008-10-23T22:23:57Z</time>
      </trkpt>
      <trkpt lat="50.700375" lon="6.454903">
        <ele>193.362000</ele>
        <time>2008-10-23T22:24:11Z</time>
      </trkpt>
      <trkpt lat="50.700377" lon="6.454956">
        <ele>192.882000</ele>
        <time>2008-10-23T22:24:14Z</time>
      </trkpt>
      <trkpt lat="50.700371" lon="6.455133">
        <ele>192.882000</ele>
        <time>2008-10-23T22:24:24Z</time>
      </trkpt>
      <trkpt lat="50.700362" lon="6.455285">
        <ele>192.882000</ele>
        <time>2008-10-23T22:24:33Z</time>
      </trkpt>
      <trkpt lat="50.700432" lon="6.455671">
        <ele>192.882000</ele>
        <time>2008-10-23T22:24:55Z</time>
      </trkpt>
      <trkpt lat="50.700484" lon="6.455895">
        <ele>192.401000</ele>
        <time>2008-10-23T22:25:09Z</time>
      </trkpt>
      <trkpt lat="50.700585" lon="6.456241">
        <ele>192.882000</ele>
        <time>2008-10-23T22:25:30Z</time>
      </trkpt>
      <trkpt lat="50.700621" lon="6.456541">
        <ele>192.882000</ele>
        <time>2008-10-23T22:25:47Z</time>
      </trkpt>
      <trkpt lat="50.700563" lon="6.456843">
        <ele>194.804000</ele>
        <time>2008-10-23T22:26:05Z</time>
      </trkpt>
      <trkpt lat="50.700509" lon="6.457112">
        <ele>195.766000</ele>
        <time>2008-10-23T22:26:21Z</time>
      </trkpt>
      <trkpt lat="50.700501" lon="6.457187">
        <ele>196.246000</ele>
        <time>2008-10-23T22:26:25Z</time>
      </trkpt>
      <trkpt lat="50.700454" lon="6.457480">
        <ele>196.727000</ele>
        <time>2008-10-23T22:26:42Z</time>
      </trkpt>
      <trkpt lat="50.700415" lon="6.457725">
        <ele>196.727000</ele>
        <time>2008-10-23T22:26:56Z</time>
      </trkpt>
      <trkpt lat="50.700387" lon="6.457978">
        <ele>198.650000</ele>
        <time>2008-10-23T22:27:10Z</time>
      </trkpt>
      <trkpt lat="50.700321" lon="6.458291">
        <ele>200.572000</ele>
        <time>2008-10-23T22:27:29Z</time>
      </trkpt>
      <trkpt lat="50.700267" lon="6.458588">
        <ele>203.937000</ele>
        <time>2008-10-23T22:27:46Z</time>
      </trkpt>
      <trkpt lat="50.700209" lon="6.458910">
        <ele>201.534000</ele>
        <time>2008-10-23T22:28:05Z</time>
      </trkpt>
      <trkpt lat="50.700147" lon="6.459135">
        <ele>203.456000</ele>
        <time>2008-10-23T22:28:19Z</time>
      </trkpt>
      <trkpt lat="50.700112" lon="6.459236">
        <ele>202.495000</ele>
        <time>2008-10-23T22:28:25Z</time>
      </trkpt>
      <trkpt lat="50.700062" lon="6.459467">
        <ele>202.014000</ele>
        <time>2008-10-23T22:28:39Z</time>
      </trkpt>
      <trkpt lat="50.700052" lon="6.459763">
        <ele>203.456000</ele>
        <time>2008-10-23T22:28:55Z</time>
      </trkpt>
      <trkpt lat="50.700050" lon="6.459785">
        <ele>203.937000</ele>
        <time>2008-10-23T22:28:57Z</time>
      </trkpt>
      <trkpt lat="50.700040" lon="6.459975">
        <ele>203.937000</ele>
        <time>2008-10-23T22:29:07Z</time>
      </trkpt>
      <trkpt lat="50.700015" lon="6.460096">
        <ele>204.417000</ele>
        <time>2008-10-23T22:29:14Z</time>
      </trkpt>
      <trkpt lat="50.699979" lon="6.460421">
        <ele>206.340000</ele>
        <time>2008-10-23T22:29:33Z</time>
      </trkpt>
      <trkpt lat="50.699966" lon="6.460607">
        <ele>205.859000</ele>
        <time>2008-10-23T22:29:43Z</time>
      </trkpt>
      <trkpt lat="50.699922" lon="6.460783">
        <ele>207.782000</ele>
        <time>2008-10-23T22:29:54Z</time>
      </trkpt>
      <trkpt lat="50.699850" lon="6.461070">
        <ele>207.782000</ele>
        <time>2008-10-23T22:30:11Z</time>
      </trkpt>
      <trkpt lat="50.699826" lon="6.461159">
        <ele>208.263000</ele>
        <time>2008-10-23T22:30:17Z</time>
      </trkpt>
      <trkpt lat="50.699758" lon="6.461329">
        <ele>208.743000</ele>
        <time>2008-10-23T22:30:28Z</time>
      </trkpt>
      <trkpt lat="50.699693" lon="6.461471">
        <ele>208.743000</ele>
        <time>2008-10-23T22:30:38Z</time>
      </trkpt>
      <trkpt lat="50.699653" lon="6.461587">
        <ele>207.782000</ele>
        <time>2008-10-23T22:30:45Z</time>
      </trkpt>
      <trkpt lat="50.699507" lon="6.461886">
        <ele>206.821000</ele>
        <time>2008-10-23T22:31:06Z</time>
      </trkpt>
      <trkpt lat="50.699438" lon="6.462084">
        <ele>206.340000</ele>
        <time>2008-10-23T22:31:19Z</time>
      </trkpt>
      <trkpt lat="50.699324" lon="6.462359">
        <ele>205.859000</ele>
        <time>2008-10-23T22:31:37Z</time>
      </trkpt>
      <trkpt lat="50.699224" lon="6.462513">
        <ele>204.417000</ele>
        <time>2008-10-23T22:31:50Z</time>
      </trkpt>
      <trkpt lat="50.699176" lon="6.462619">
        <ele>203.937000</ele>
        <time>2008-10-23T22:31:57Z</time>
      </trkpt>
      <trkpt lat="50.699076" lon="6.462744">
        <ele>202.495000</ele>
        <time>2008-10-23T22:32:08Z</time>
      </trkpt>
      <trkpt lat="50.699010" lon="6.462848">
        <ele>203.456000</ele>
        <time>2008-10-23T22:32:16Z</time>
      </trkpt>
      <trkpt lat="50.698960" lon="6.462885">
        <ele>202.495000</ele>
        <time>2008-10-23T22:32:21Z</time>
      </trkpt>
      <trkpt lat="50.698889" lon="6.463033">
        <ele>202.495000</ele>
        <time>2008-10-23T22:32:32Z</time>
      </trkpt>
      <trkpt lat="50.698821" lon="6.463051">
        <ele>202.495000</ele>
        <time>2008-10-23T22:32:38Z</time>
      </trkpt>
      <trkpt lat="50.698721" lon="6.463107">
        <ele>201.534000</ele>
        <time>2008-10-23T22:32:47Z</time>
      </trkpt>
      <trkpt lat="50.698633" lon="6.463111">
        <ele>201.534000</ele>
        <time>2008-10-23T22:32:55Z</time>
      </trkpt>
      <trkpt lat="50.698488" lon="6.463106">
        <ele>200.092000</ele>
        <time>2008-10-23T22:33:08Z</time>
      </trkpt>
      <trkpt lat="50.698371" lon="6.463120">
        <ele>198.169000</ele>
        <time>2008-10-23T22:33:18Z</time>
      </trkpt>
      <trkpt lat="50.698291" lon="6.463101">
        <ele>197.208000</ele>
        <time>2008-10-23T22:33:25Z</time>
      </trkpt>
      <trkpt lat="50.698092" lon="6.463134">
        <ele>195.285000</ele>
        <time>2008-10-23T22:33:43Z</time>
      </trkpt>
      <trkpt lat="50.697932" lon="6.463077">
        <ele>194.804000</ele>
        <time>2008-10-23T22:33:58Z</time>
      </trkpt>
      <trkpt lat="50.697714" lon="6.463096">
        <ele>194.804000</ele>
        <time>2008-10-23T22:34:17Z</time>
      </trkpt>
      <trkpt lat="50.697544" lon="6.463027">
        <ele>194.804000</ele>
        <time>2008-10-23T22:34:32Z</time>
      </trkpt>
      <trkpt lat="50.697438" lon="6.462787">
        <ele>193.362000</ele>
        <time>2008-10-23T22:34:49Z</time>
      </trkpt>
      <trkpt lat="50.697291" lon="6.462492">
        <ele>193.362000</ele>
        <time>2008-10-23T22:35:10Z</time>
      </trkpt>
      <trkpt lat="50.697165" lon="6.462306">
        <ele>193.362000</ele>
        <time>2008-10-23T22:35:25Z</time>
      </trkpt>
      <trkpt lat="50.697057" lon="6.462058">
        <ele>191.920000</ele>
        <time>2008-10-23T22:35:42Z</time>
      </trkpt>
      <trkpt lat="50.697011" lon="6.461946">
        <ele>191.920000</ele>
        <time>2008-10-23T22:35:49Z</time>
      </trkpt>
      <trkpt lat="50.696913" lon="6.461736">
        <ele>192.882000</ele>
        <time>2008-10-23T22:36:04Z</time>
      </trkpt>
      <trkpt lat="50.696880" lon="6.461660">
        <ele>192.401000</ele>
        <time>2008-10-23T22:36:09Z</time>
      </trkpt>
      <trkpt lat="50.696730" lon="6.461428">
        <ele>191.440000</ele>
        <time>2008-10-23T22:36:28Z</time>
      </trkpt>
      <trkpt lat="50.696702" lon="6.461378">
        <ele>190.959000</ele>
        <time>2008-10-23T22:36:31Z</time>
      </trkpt>
      <trkpt lat="50.696697" lon="6.461306">
        <ele>190.478000</ele>
        <time>2008-10-23T22:36:35Z</time>
      </trkpt>
      <trkpt lat="50.696696" lon="6.461258">
        <ele>191.920000</ele>
        <time>2008-10-23T22:36:38Z</time>
      </trkpt>
      <trkpt lat="50.696654" lon="6.461006">
        <ele>192.401000</ele>
        <time>2008-10-23T22:36:53Z</time>
      </trkpt>
      <trkpt lat="50.696648" lon="6.460748">
        <ele>188.556000</ele>
        <time>2008-10-23T22:37:07Z</time>
      </trkpt>
      <trkpt lat="50.696659" lon="6.460679">
        <ele>189.998000</ele>
        <time>2008-10-23T22:37:11Z</time>
      </trkpt>
      <trkpt lat="50.696669" lon="6.460620">
        <ele>189.998000</ele>
        <time>2008-10-23T22:37:15Z</time>
      </trkpt>
      <trkpt lat="50.696710" lon="6.460410">
        <ele>186.633000</ele>
        <time>2008-10-23T22:37:27Z</time>
      </trkpt>
      <trkpt lat="50.696739" lon="6.460380">
        <ele>187.594000</ele>
        <time>2008-10-23T22:37:30Z</time>
      </trkpt>
      <trkpt lat="50.696742" lon="6.460367">
        <ele>187.114000</ele>
        <time>2008-10-23T22:37:31Z</time>
      </trkpt>
      <trkpt lat="50.696760" lon="6.460285">
        <ele>188.075000</ele>
        <time>2008-10-23T22:37:36Z</time>
      </trkpt>
      <trkpt lat="50.696761" lon="6.460071">
        <ele>186.633000</ele>
        <time>2008-10-23T22:37:48Z</time>
      </trkpt>
      <trkpt lat="50.696803" lon="6.459933">
        <ele>186.633000</ele>
        <time>2008-10-23T22:37:56Z</time>
      </trkpt>
      <trkpt lat="50.696816" lon="6.459871">
        <ele>186.633000</ele>
        <time>2008-10-23T22:38:00Z</time>
      </trkpt>
      <trkpt lat="50.696831" lon="6.459793">
        <ele>189.998000</ele>
        <time>2008-10-23T22:38:04Z</time>
      </trkpt>
      <trkpt lat="50.696825" lon="6.459804">
        <ele>191.440000</ele>
        <time>2008-10-23T22:38:05Z</time>
      </trkpt>
      <trkpt lat="50.696921" lon="6.459864">
        <ele>194.324000</ele>
        <time>2008-10-23T22:38:14Z</time>
      </trkpt>
      <trkpt lat="50.696982" lon="6.459813">
        <ele>196.246000</ele>
        <time>2008-10-23T22:38:20Z</time>
      </trkpt>
      <trkpt lat="50.697017" lon="6.459770">
        <ele>197.208000</ele>
        <time>2008-10-23T22:38:24Z</time>
      </trkpt>
      <trkpt lat="50.697096" lon="6.459719">
        <ele>198.650000</ele>
        <time>2008-10-23T22:38:32Z</time>
      </trkpt>
      <trkpt lat="50.697195" lon="6.459612">
        <ele>201.534000</ele>
        <time>2008-10-23T22:38:42Z</time>
      </trkpt>
      <trkpt lat="50.697313" lon="6.459723">
        <ele>203.456000</ele>
        <time>2008-10-23T22:38:55Z</time>
      </trkpt>
      <trkpt lat="50.697344" lon="6.459749">
        <ele>203.937000</ele>
        <time>2008-10-23T22:38:58Z</time>
      </trkpt>
      <trkpt lat="50.697503" lon="6.459868">
        <ele>205.859000</ele>
        <time>2008-10-23T22:39:13Z</time>
      </trkpt>
      <trkpt lat="50.697628" lon="6.459789">
        <ele>207.301000</ele>
        <time>2008-10-23T22:39:25Z</time>
      </trkpt>
      <trkpt lat="50.697738" lon="6.459634">
        <ele>209.705000</ele>
        <time>2008-10-23T22:39:38Z</time>
      </trkpt>
      <trkpt lat="50.697829" lon="6.459544">
        <ele>211.147000</ele>
        <time>2008-10-23T22:39:48Z</time>
      </trkpt>
      <trkpt lat="50.697916" lon="6.459503">
        <ele>213.069000</ele>
        <time>2008-10-23T22:39:56Z</time>
      </trkpt>
      <trkpt lat="50.697965" lon="6.459338">
        <ele>212.589000</ele>
        <time>2008-10-23T22:40:06Z</time>
      </trkpt>
      <trkpt lat="50.698099" lon="6.459171">
        <ele>214.992000</ele>
        <time>2008-10-23T22:40:21Z</time>
      </trkpt>
      <trkpt lat="50.698122" lon="6.459103">
        <ele>215.473000</ele>
        <time>2008-10-23T22:40:25Z</time>
      </trkpt>
      <trkpt lat="50.698206" lon="6.458994">
        <ele>217.876000</ele>
        <time>2008-10-23T22:40:35Z</time>
      </trkpt>
      <trkpt lat="50.698352" lon="6.458874">
        <ele>220.760000</ele>
        <time>2008-10-23T22:40:50Z</time>
      </trkpt>
      <trkpt lat="50.698551" lon="6.458740">
        <ele>221.241000</ele>
        <time>2008-10-23T22:41:09Z</time>
      </trkpt>
      <trkpt lat="50.698641" lon="6.458660">
        <ele>223.163000</ele>
        <time>2008-10-23T22:41:18Z</time>
      </trkpt>
      <trkpt lat="50.698754" lon="6.458565">
        <ele>222.682000</ele>
        <time>2008-10-23T22:41:29Z</time>
      </trkpt>
      <trkpt lat="50.698869" lon="6.458399">
        <ele>223.644000</ele>
        <time>2008-10-23T22:41:43Z</time>
      </trkpt>
      <trkpt lat="50.698913" lon="6.458200">
        <ele>224.125000</ele>
        <time>2008-10-23T22:41:55Z</time>
      </trkpt>
      <trkpt lat="50.698950" lon="6.458085">
        <ele>225.086000</ele>
        <time>2008-10-23T22:42:02Z</time>
      </trkpt>
      <trkpt lat="50.698940" lon="6.457886">
        <ele>226.047000</ele>
        <time>2008-10-23T22:42:13Z</time>
      </trkpt>
      <trkpt lat="50.698877" lon="6.457657">
        <ele>229.892000</ele>
        <time>2008-10-23T22:42:27Z</time>
      </trkpt>
      <trkpt lat="50.698880" lon="6.457641">
        <ele>228.931000</ele>
        <time>2008-10-23T22:42:28Z</time>
      </trkpt>
      <trkpt lat="50.698902" lon="6.457496">
        <ele>228.931000</ele>
        <time>2008-10-23T22:42:36Z</time>
      </trkpt>
      <trkpt lat="50.698895" lon="6.457383">
        <ele>229.892000</ele>
        <time>2008-10-23T22:42:43Z</time>
      </trkpt>
      <trkpt lat="50.698894" lon="6.457312">
        <ele>229.412000</ele>
        <time>2008-10-23T22:42:47Z</time>
      </trkpt>
      <trkpt lat="50.698922" lon="6.457236">
        <ele>230.373000</ele>
        <time>2008-10-23T22:42:52Z</time>
      </trkpt>
      <trkpt lat="50.698887" lon="6.457018">
        <ele>230.373000</ele>
        <time>2008-10-23T22:43:04Z</time>
      </trkpt>
      <trkpt lat="50.698882" lon="6.457001">
        <ele>230.373000</ele>
        <time>2008-10-23T22:43:05Z</time>
      </trkpt>
      <trkpt lat="50.698890" lon="6.456762">
        <ele>230.854000</ele>
        <time>2008-10-23T22:43:19Z</time>
      </trkpt>
      <trkpt lat="50.698887" lon="6.456493">
        <ele>230.854000</ele>
        <time>2008-10-23T22:43:34Z</time>
      </trkpt>
      <trkpt lat="50.698884" lon="6.456442">
        <ele>230.373000</ele>
        <time>2008-10-23T22:43:37Z</time>
      </trkpt>
      <trkpt lat="50.698880" lon="6.456154">
        <ele>229.412000</ele>
        <time>2008-10-23T22:43:53Z</time>
      </trkpt>
      <trkpt lat="50.698851" lon="6.455853">
        <ele>228.931000</ele>
        <time>2008-10-23T22:44:10Z</time>
      </trkpt>
      <trkpt lat="50.698833" lon="6.455591">
        <ele>228.931000</ele>
        <time>2008-10-23T22:44:25Z</time>
      </trkpt>
      <trkpt lat="50.698771" lon="6.455271">
        <ele>228.931000</ele>
        <time>2008-10-23T22:44:43Z</time>
      </trkpt>
      <trkpt lat="50.698725" lon="6.454981">
        <ele>229.412000</ele>
        <time>2008-10-23T22:45:00Z</time>
      </trkpt>
      <trkpt lat="50.698678" lon="6.454747">
        <ele>229.412000</ele>
        <time>2008-10-23T22:45:14Z</time>
      </trkpt>
      <trkpt lat="50.698584" lon="6.454537">
        <ele>228.931000</ele>
        <time>2008-10-23T22:45:28Z</time>
      </trkpt>
      <trkpt lat="50.698525" lon="6.454446">
        <ele>228.931000</ele>
        <time>2008-10-23T22:45:35Z</time>
      </trkpt>
      <trkpt lat="50.698462" lon="6.454083">
        <ele>227.970000</ele>
        <time>2008-10-23T22:45:57Z</time>
      </trkpt>
      <trkpt lat="50.698337" lon="6.453805">
        <ele>228.450000</ele>
        <time>2008-10-23T22:46:16Z</time>
      </trkpt>
      <trkpt lat="50.698082" lon="6.453229">
        <ele>227.970000</ele>
        <time>2008-10-23T22:46:55Z</time>
      </trkpt>
      <trkpt lat="50.697968" lon="6.453124">
        <ele>227.970000</ele>
        <time>2008-10-23T22:47:07Z</time>
      </trkpt>
      <trkpt lat="50.697823" lon="6.452975">
        <ele>227.489000</ele>
        <time>2008-10-23T22:47:22Z</time>
      </trkpt>
      <trkpt lat="50.697776" lon="6.452909">
        <ele>226.047000</ele>
        <time>2008-10-23T22:47:28Z</time>
      </trkpt>
      <trkpt lat="50.697705" lon="6.452777">
        <ele>225.567000</ele>
        <time>2008-10-23T22:47:37Z</time>
      </trkpt>
      <trkpt lat="50.697646" lon="6.452729">
        <ele>225.567000</ele>
        <time>2008-10-23T22:47:43Z</time>
      </trkpt>
      <trkpt lat="50.697580" lon="6.452649">
        <ele>226.047000</ele>
        <time>2008-10-23T22:47:50Z</time>
      </trkpt>
      <trkpt lat="50.697569" lon="6.452607">
        <ele>227.009000</ele>
        <time>2008-10-23T22:47:53Z</time>
      </trkpt>
      <trkpt lat="50.697476" lon="6.452531">
        <ele>228.450000</ele>
        <time>2008-10-23T22:48:02Z</time>
      </trkpt>
      <trkpt lat="50.697382" lon="6.452337">
        <ele>228.931000</ele>
        <time>2008-10-23T22:48:16Z</time>
      </trkpt>
      <trkpt lat="50.697348" lon="6.452308">
        <ele>229.892000</ele>
        <time>2008-10-23T22:48:19Z</time>
      </trkpt>
      <trkpt lat="50.697315" lon="6.452261">
        <ele>229.892000</ele>
        <time>2008-10-23T22:48:23Z</time>
      </trkpt>
      <trkpt lat="50.697261" lon="6.452161">
        <ele>227.009000</ele>
        <time>2008-10-23T22:48:31Z</time>
      </trkpt>
      <trkpt lat="50.697242" lon="6.452160">
        <ele>227.489000</ele>
        <time>2008-10-23T22:48:32Z</time>
      </trkpt>
      <trkpt lat="50.697205" lon="6.452164">
        <ele>226.528000</ele>
        <time>2008-10-23T22:48:36Z</time>
      </trkpt>
      <trkpt lat="50.697058" lon="6.452076">
        <ele>225.567000</ele>
        <time>2008-10-23T22:48:49Z</time>
      </trkpt>
      <trkpt lat="50.696901" lon="6.452011">
        <ele>224.125000</ele>
        <time>2008-10-23T22:49:04Z</time>
      </trkpt>
      <trkpt lat="50.696769" lon="6.451887">
        <ele>220.760000</ele>
        <time>2008-10-23T22:49:17Z</time>
      </trkpt>
      <trkpt lat="50.696494" lon="6.451725">
        <ele>218.837000</ele>
        <time>2008-10-23T22:49:43Z</time>
      </trkpt>
      <trkpt lat="50.696352" lon="6.451550">
        <ele>216.434000</ele>
        <time>2008-10-23T22:49:59Z</time>
      </trkpt>
      <trkpt lat="50.696196" lon="6.451395">
        <ele>216.434000</ele>
        <time>2008-10-23T22:50:16Z</time>
      </trkpt>
      <trkpt lat="50.696055" lon="6.451340">
        <ele>215.473000</ele>
        <time>2008-10-23T22:50:28Z</time>
      </trkpt>
      <trkpt lat="50.696041" lon="6.451343">
        <ele>214.992000</ele>
        <time>2008-10-23T22:50:30Z</time>
      </trkpt>
      <trkpt lat="50.695864" lon="6.451233">
        <ele>212.108000</ele>
        <time>2008-10-23T22:50:47Z</time>
      </trkpt>
      <trkpt lat="50.695484" lon="6.451044">
        <ele>208.743000</ele>
        <time>2008-10-23T22:51:22Z</time>
      </trkpt>
      <trkpt lat="50.694883" lon="6.451133">
        <ele>206.821000</ele>
        <time>2008-10-23T22:52:15Z</time>
      </trkpt>
      <trkpt lat="50.694731" lon="6.451196">
        <ele>206.821000</ele>
        <time>2008-10-23T22:52:29Z</time>
      </trkpt>
      <trkpt lat="50.694714" lon="6.451186">
        <ele>206.821000</ele>
        <time>2008-10-23T22:52:31Z</time>
      </trkpt>
      <trkpt lat="50.694687" lon="6.451181">
        <ele>207.782000</ele>
        <time>2008-10-23T22:52:33Z</time>
      </trkpt>
      <trkpt lat="50.694668" lon="6.451170">
        <ele>207.782000</ele>
        <time>2008-10-23T22:52:35Z</time>
      </trkpt>
      <trkpt lat="50.694630" lon="6.451077">
        <ele>207.301000</ele>
        <time>2008-10-23T22:52:41Z</time>
      </trkpt>
      <trkpt lat="50.694514" lon="6.450995">
        <ele>207.301000</ele>
        <time>2008-10-23T22:52:52Z</time>
      </trkpt>
      <trkpt lat="50.694399" lon="6.451060">
        <ele>205.379000</ele>
        <time>2008-10-23T22:53:03Z</time>
      </trkpt>
      <trkpt lat="50.694382" lon="6.451061">
        <ele>205.379000</ele>
        <time>2008-10-23T22:53:05Z</time>
      </trkpt>
      <trkpt lat="50.694248" lon="6.451058">
        <ele>204.417000</ele>
        <time>2008-10-23T22:53:16Z</time>
      </trkpt>
      <trkpt lat="50.694122" lon="6.450992">
        <ele>204.898000</ele>
        <time>2008-10-23T22:53:28Z</time>
      </trkpt>
      <trkpt lat="50.694077" lon="6.450977">
        <ele>204.417000</ele>
        <time>2008-10-23T22:53:32Z</time>
      </trkpt>
      <trkpt lat="50.693866" lon="6.450986">
        <ele>203.456000</ele>
        <time>2008-10-23T22:53:51Z</time>
      </trkpt>
      <trkpt lat="50.693679" lon="6.450985">
        <ele>202.975000</ele>
        <time>2008-10-23T22:54:07Z</time>
      </trkpt>
      <trkpt lat="50.693583" lon="6.451001">
        <ele>202.495000</ele>
        <time>2008-10-23T22:54:16Z</time>
      </trkpt>
      <trkpt lat="50.693372" lon="6.451102">
        <ele>202.495000</ele>
        <time>2008-10-23T22:54:35Z</time>
      </trkpt>
      <trkpt lat="50.693222" lon="6.451203">
        <ele>202.495000</ele>
        <time>2008-10-23T22:54:50Z</time>
      </trkpt>
      <trkpt lat="50.693115" lon="6.451300">
        <ele>201.053000</ele>
        <time>2008-10-23T22:55:01Z</time>
      </trkpt>
      <trkpt lat="50.692972" lon="6.451318">
        <ele>201.053000</ele>
        <time>2008-10-23T22:55:13Z</time>
      </trkpt>
      <trkpt lat="50.692807" lon="6.451236">
        <ele>199.611000</ele>
        <time>2008-10-23T22:55:29Z</time>
      </trkpt>
      <trkpt lat="50.692719" lon="6.451271">
        <ele>197.688000</ele>
        <time>2008-10-23T22:55:37Z</time>
      </trkpt>
      <trkpt lat="50.692604" lon="6.451542">
        <ele>196.246000</ele>
        <time>2008-10-23T22:55:55Z</time>
      </trkpt>
      <trkpt lat="50.692565" lon="6.451803">
        <ele>193.362000</ele>
        <time>2008-10-23T22:56:10Z</time>
      </trkpt>
      <trkpt lat="50.692570" lon="6.451826">
        <ele>191.920000</ele>
        <time>2008-10-23T22:56:11Z</time>
      </trkpt>
      <trkpt lat="50.692530" lon="6.452018">
        <ele>188.556000</ele>
        <time>2008-10-23T22:56:23Z</time>
      </trkpt>
      <trkpt lat="50.692335" lon="6.452116">
        <ele>188.075000</ele>
        <time>2008-10-23T22:56:41Z</time>
      </trkpt>
      <trkpt lat="50.692312" lon="6.452031">
        <ele>187.114000</ele>
        <time>2008-10-23T22:56:46Z</time>
      </trkpt>
      <trkpt lat="50.692284" lon="6.451738">
        <ele>186.152000</ele>
        <time>2008-10-23T22:57:03Z</time>
      </trkpt>
      <trkpt lat="50.692253" lon="6.451657">
        <ele>188.075000</ele>
        <time>2008-10-23T22:57:08Z</time>
      </trkpt>
      <trkpt lat="50.692257" lon="6.451566">
        <ele>188.556000</ele>
        <time>2008-10-23T22:57:13Z</time>
      </trkpt>
      <trkpt lat="50.692104" lon="6.451625">
        <ele>188.075000</ele>
        <time>2008-10-23T22:57:27Z</time>
      </trkpt>
      <trkpt lat="50.692023" lon="6.451720">
        <ele>187.594000</ele>
        <time>2008-10-23T22:57:36Z</time>
      </trkpt>
      <trkpt lat="50.691959" lon="6.451769">
        <ele>189.036000</ele>
        <time>2008-10-23T22:57:42Z</time>
      </trkpt>
      <trkpt lat="50.691992" lon="6.451685">
        <ele>189.036000</ele>
        <time>2008-10-23T22:57:48Z</time>
      </trkpt>
      <trkpt lat="50.692235" lon="6.451311">
        <ele>188.556000</ele>
        <time>2008-10-23T22:58:18Z</time>
      </trkpt>
      <trkpt lat="50.692240" lon="6.451077">
        <ele>187.594000</ele>
        <time>2008-10-23T22:58:31Z</time>
      </trkpt>
      <trkpt lat="50.692288" lon="6.450877">
        <ele>187.594000</ele>
        <time>2008-10-23T22:58:43Z</time>
      </trkpt>
      <trkpt lat="50.692277" lon="6.450823">
        <ele>185.672000</ele>
        <time>2008-10-23T22:58:46Z</time>
      </trkpt>
      <trkpt lat="50.692273" lon="6.450745">
        <ele>187.114000</ele>
        <time>2008-10-23T22:58:50Z</time>
      </trkpt>
      <trkpt lat="50.692273" lon="6.450660">
        <ele>188.556000</ele>
        <time>2008-10-23T22:58:55Z</time>
      </trkpt>
      <trkpt lat="50.692326" lon="6.450313">
        <ele>190.478000</ele>
        <time>2008-10-23T22:59:15Z</time>
      </trkpt>
      <trkpt lat="50.692318" lon="6.450244">
        <ele>190.478000</ele>
        <time>2008-10-23T22:59:19Z</time>
      </trkpt>
      <trkpt lat="50.692332" lon="6.450140">
        <ele>190.478000</ele>
        <time>2008-10-23T22:59:25Z</time>
      </trkpt>
      <trkpt lat="50.692300" lon="6.449982">
        <ele>190.959000</ele>
        <time>2008-10-23T22:59:34Z</time>
      </trkpt>
      <trkpt lat="50.692260" lon="6.449880">
        <ele>191.440000</ele>
        <time>2008-10-23T22:59:41Z</time>
      </trkpt>
      <trkpt lat="50.692206" lon="6.449794">
        <ele>192.401000</ele>
        <time>2008-10-23T22:59:48Z</time>
      </trkpt>
      <trkpt lat="50.692107" lon="6.449601">
        <ele>192.401000</ele>
        <time>2008-10-23T23:00:02Z</time>
      </trkpt>
      <trkpt lat="50.692040" lon="6.449527">
        <ele>193.843000</ele>
        <time>2008-10-23T23:00:09Z</time>
      </trkpt>
      <trkpt lat="50.691989" lon="6.449431">
        <ele>192.882000</ele>
        <time>2008-10-23T23:00:16Z</time>
      </trkpt>
      <trkpt lat="50.691959" lon="6.449404">
        <ele>192.401000</ele>
        <time>2008-10-23T23:00:19Z</time>
      </trkpt>
      <trkpt lat="50.691958" lon="6.449337">
        <ele>191.440000</ele>
        <time>2008-10-23T23:00:23Z</time>
      </trkpt>
      <trkpt lat="50.691926" lon="6.449274">
        <ele>191.920000</ele>
        <time>2008-10-23T23:00:27Z</time>
      </trkpt>
      <trkpt lat="50.691733" lon="6.449116">
        <ele>190.478000</ele>
        <time>2008-10-23T23:00:46Z</time>
      </trkpt>
      <trkpt lat="50.691583" lon="6.449033">
        <ele>189.517000</ele>
        <time>2008-10-23T23:01:00Z</time>
      </trkpt>
      <trkpt lat="50.691344" lon="6.449089">
        <ele>192.882000</ele>
        <time>2008-10-23T23:01:22Z</time>
      </trkpt>
      <trkpt lat="50.691287" lon="6.449035">
        <ele>191.920000</ele>
        <time>2008-10-23T23:01:28Z</time>
      </trkpt>
      <trkpt lat="50.691278" lon="6.448976">
        <ele>192.401000</ele>
        <time>2008-10-23T23:01:31Z</time>
      </trkpt>
      <trkpt lat="50.691286" lon="6.448966">
        <ele>189.998000</ele>
        <time>2008-10-23T23:01:32Z</time>
      </trkpt>
      <trkpt lat="50.691359" lon="6.449001">
        <ele>189.998000</ele>
        <time>2008-10-23T23:01:39Z</time>
      </trkpt>
      <trkpt lat="50.691427" lon="6.449056">
        <ele>189.998000</ele>
        <time>2008-10-23T23:01:46Z</time>
      </trkpt>
      <trkpt lat="50.691459" lon="6.449075">
        <ele>190.959000</ele>
        <time>2008-10-23T23:01:49Z</time>
      </trkpt>
      <trkpt lat="50.691552" lon="6.449203">
        <ele>189.998000</ele>
        <time>2008-10-23T23:01:59Z</time>
      </trkpt>
      <trkpt lat="50.691737" lon="6.449421">
        <ele>191.440000</ele>
        <time>2008-10-23T23:02:20Z</time>
      </trkpt>
      <trkpt lat="50.691865" lon="6.449637">
        <ele>191.440000</ele>
        <time>2008-10-23T23:02:36Z</time>
      </trkpt>
      <trkpt lat="50.691927" lon="6.449692">
        <ele>190.478000</ele>
        <time>2008-10-23T23:02:43Z</time>
      </trkpt>
      <trkpt lat="50.692004" lon="6.449780">
        <ele>190.959000</ele>
        <time>2008-10-23T23:02:51Z</time>
      </trkpt>
      <trkpt lat="50.692116" lon="6.449964">
        <ele>188.075000</ele>
        <time>2008-10-23T23:03:05Z</time>
      </trkpt>
      <trkpt lat="50.692169" lon="6.450043">
        <ele>187.594000</ele>
        <time>2008-10-23T23:03:12Z</time>
      </trkpt>
      <trkpt lat="50.692195" lon="6.450274">
        <ele>188.075000</ele>
        <time>2008-10-23T23:03:25Z</time>
      </trkpt>
      <trkpt lat="50.692174" lon="6.450654">
        <ele>188.075000</ele>
        <time>2008-10-23T23:03:46Z</time>
      </trkpt>
      <trkpt lat="50.692137" lon="6.450977">
        <ele>188.075000</ele>
        <time>2008-10-23T23:04:05Z</time>
      </trkpt>
      <trkpt lat="50.692035" lon="6.451232">
        <ele>187.114000</ele>
        <time>2008-10-23T23:04:22Z</time>
      </trkpt>
      <trkpt lat="50.691964" lon="6.451390">
        <ele>187.594000</ele>
        <time>2008-10-23T23:04:33Z</time>
      </trkpt>
      <trkpt lat="50.691919" lon="6.451462">
        <ele>187.114000</ele>
        <time>2008-10-23T23:04:38Z</time>
      </trkpt>
      <trkpt lat="50.691746" lon="6.451700">
        <ele>186.633000</ele>
        <time>2008-10-23T23:04:58Z</time>
      </trkpt>
      <trkpt lat="50.691609" lon="6.451873">
        <ele>187.114000</ele>
        <time>2008-10-23T23:05:14Z</time>
      </trkpt>
      <trkpt lat="50.691530" lon="6.452112">
        <ele>187.114000</ele>
        <time>2008-10-23T23:05:29Z</time>
      </trkpt>
      <trkpt lat="50.691504" lon="6.452242">
        <ele>186.633000</ele>
        <time>2008-10-23T23:05:37Z</time>
      </trkpt>
      <trkpt lat="50.691378" lon="6.452552">
        <ele>186.633000</ele>
        <time>2008-10-23T23:05:57Z</time>
      </trkpt>
      <trkpt lat="50.691295" lon="6.452817">
        <ele>187.114000</ele>
        <time>2008-10-23T23:06:14Z</time>
      </trkpt>
      <trkpt lat="50.691214" lon="6.453246">
        <ele>187.594000</ele>
        <time>2008-10-23T23:06:39Z</time>
      </trkpt>
      <trkpt lat="50.691209" lon="6.453270">
        <ele>188.075000</ele>
        <time>2008-10-23T23:06:40Z</time>
      </trkpt>
      <trkpt lat="50.691204" lon="6.453371">
        <ele>187.594000</ele>
        <time>2008-10-23T23:06:46Z</time>
      </trkpt>
      <trkpt lat="50.691187" lon="6.453479">
        <ele>187.594000</ele>
        <time>2008-10-23T23:06:52Z</time>
      </trkpt>
      <trkpt lat="50.691193" lon="6.453743">
        <ele>187.594000</ele>
        <time>2008-10-23T23:07:07Z</time>
      </trkpt>
      <trkpt lat="50.691231" lon="6.453880">
        <ele>187.594000</ele>
        <time>2008-10-23T23:07:15Z</time>
      </trkpt>
      <trkpt lat="50.691320" lon="6.454110">
        <ele>185.672000</ele>
        <time>2008-10-23T23:07:31Z</time>
      </trkpt>
      <trkpt lat="50.691376" lon="6.454421">
        <ele>185.672000</ele>
        <time>2008-10-23T23:07:49Z</time>
      </trkpt>
      <trkpt lat="50.691422" lon="6.454571">
        <ele>185.672000</ele>
        <time>2008-10-23T23:07:58Z</time>
      </trkpt>
      <trkpt lat="50.691432" lon="6.454552">
        <ele>184.711000</ele>
        <time>2008-10-23T23:07:59Z</time>
      </trkpt>
      <trkpt lat="50.691497" lon="6.454477">
        <ele>184.711000</ele>
        <time>2008-10-23T23:08:07Z</time>
      </trkpt>
      <trkpt lat="50.691570" lon="6.454434">
        <ele>185.191000</ele>
        <time>2008-10-23T23:08:13Z</time>
      </trkpt>
      <trkpt lat="50.691758" lon="6.454345">
        <ele>186.633000</ele>
        <time>2008-10-23T23:08:31Z</time>
      </trkpt>
      <trkpt lat="50.691804" lon="6.454308">
        <ele>187.114000</ele>
        <time>2008-10-23T23:08:35Z</time>
      </trkpt>
      <trkpt lat="50.691791" lon="6.454329">
        <ele>185.191000</ele>
        <time>2008-10-23T23:08:37Z</time>
      </trkpt>
      <trkpt lat="50.691705" lon="6.454410">
        <ele>184.230000</ele>
        <time>2008-10-23T23:08:46Z</time>
      </trkpt>
      <trkpt lat="50.691502" lon="6.454576">
        <ele>183.268000</ele>
        <time>2008-10-23T23:09:06Z</time>
      </trkpt>
      <trkpt lat="50.691475" lon="6.454583">
        <ele>183.268000</ele>
        <time>2008-10-23T23:09:08Z</time>
      </trkpt>
      <trkpt lat="50.691368" lon="6.454617">
        <ele>182.788000</ele>
        <time>2008-10-23T23:09:18Z</time>
      </trkpt>
      <trkpt lat="50.691249" lon="6.454458">
        <ele>185.672000</ele>
        <time>2008-10-23T23:09:32Z</time>
      </trkpt>
      <trkpt lat="50.691274" lon="6.454219">
        <ele>183.268000</ele>
        <time>2008-10-23T23:09:45Z</time>
      </trkpt>
      <trkpt lat="50.691306" lon="6.454232">
        <ele>184.230000</ele>
        <time>2008-10-23T23:09:48Z</time>
      </trkpt>
      <trkpt lat="50.691119" lon="6.454085">
        <ele>184.711000</ele>
        <time>2008-10-23T23:10:07Z</time>
      </trkpt>
      <trkpt lat="50.691081" lon="6.454343">
        <ele>185.191000</ele>
        <time>2008-10-23T23:10:22Z</time>
      </trkpt>
      <trkpt lat="50.691078" lon="6.454359">
        <ele>185.191000</ele>
        <time>2008-10-23T23:10:23Z</time>
      </trkpt>
      <trkpt lat="50.691075" lon="6.454407">
        <ele>183.749000</ele>
        <time>2008-10-23T23:10:25Z</time>
      </trkpt>
      <trkpt lat="50.691050" lon="6.454457">
        <ele>185.191000</ele>
        <time>2008-10-23T23:10:29Z</time>
      </trkpt>
      <trkpt lat="50.690933" lon="6.454782">
        <ele>184.230000</ele>
        <time>2008-10-23T23:10:50Z</time>
      </trkpt>
      <trkpt lat="50.690929" lon="6.454810">
        <ele>184.711000</ele>
        <time>2008-10-23T23:10:51Z</time>
      </trkpt>
      <trkpt lat="50.690763" lon="6.455152">
        <ele>186.152000</ele>
        <time>2008-10-23T23:11:16Z</time>
      </trkpt>
      <trkpt lat="50.690715" lon="6.455264">
        <ele>186.633000</ele>
        <time>2008-10-23T23:11:23Z</time>
      </trkpt>
      <trkpt lat="50.690641" lon="6.455372">
        <ele>185.672000</ele>
        <time>2008-10-23T23:11:32Z</time>
      </trkpt>
      <trkpt lat="50.690620" lon="6.455445">
        <ele>188.075000</ele>
        <time>2008-10-23T23:11:37Z</time>
      </trkpt>
      <trkpt lat="50.690576" lon="6.455612">
        <ele>186.152000</ele>
        <time>2008-10-23T23:11:47Z</time>
      </trkpt>
      <trkpt lat="50.690543" lon="6.455705">
        <ele>185.672000</ele>
        <time>2008-10-23T23:11:53Z</time>
      </trkpt>
      <trkpt lat="50.690464" lon="6.455745">
        <ele>186.152000</ele>
        <time>2008-10-23T23:12:00Z</time>
      </trkpt>
      <trkpt lat="50.690465" lon="6.455880">
        <ele>187.114000</ele>
        <time>2008-10-23T23:12:08Z</time>
      </trkpt>
      <trkpt lat="50.690417" lon="6.456124">
        <ele>186.633000</ele>
        <time>2008-10-23T23:12:22Z</time>
      </trkpt>
      <trkpt lat="50.690402" lon="6.456177">
        <ele>185.191000</ele>
        <time>2008-10-23T23:12:25Z</time>
      </trkpt>
      <trkpt lat="50.690405" lon="6.456529">
        <ele>187.114000</ele>
        <time>2008-10-23T23:12:45Z</time>
      </trkpt>
      <trkpt lat="50.690395" lon="6.456590">
        <ele>187.114000</ele>
        <time>2008-10-23T23:12:48Z</time>
      </trkpt>
      <trkpt lat="50.690303" lon="6.456870">
        <ele>186.633000</ele>
        <time>2008-10-23T23:13:06Z</time>
      </trkpt>
      <trkpt lat="50.690293" lon="6.457029">
        <ele>187.114000</ele>
        <time>2008-10-23T23:13:15Z</time>
      </trkpt>
      <trkpt lat="50.690351" lon="6.457291">
        <ele>186.633000</ele>
        <time>2008-10-23T23:13:30Z</time>
      </trkpt>
      <trkpt lat="50.690368" lon="6.457505">
        <ele>186.633000</ele>
        <time>2008-10-23T23:13:43Z</time>
      </trkpt>
      <trkpt lat="50.690390" lon="6.457837">
        <ele>187.114000</ele>
        <time>2008-10-23T23:14:01Z</time>
      </trkpt>
      <trkpt lat="50.690389" lon="6.457853">
        <ele>186.633000</ele>
        <time>2008-10-23T23:14:02Z</time>
      </trkpt>
      <trkpt lat="50.690415" lon="6.458155">
        <ele>187.594000</ele>
        <time>2008-10-23T23:14:19Z</time>
      </trkpt>
      <trkpt lat="50.690403" lon="6.458318">
        <ele>189.036000</ele>
        <time>2008-10-23T23:14:28Z</time>
      </trkpt>
      <trkpt lat="50.690444" lon="6.458636">
        <ele>187.114000</ele>
        <time>2008-10-23T23:14:47Z</time>
      </trkpt>
      <trkpt lat="50.690446" lon="6.458919">
        <ele>186.152000</ele>
        <time>2008-10-23T23:15:02Z</time>
      </trkpt>
      <trkpt lat="50.690455" lon="6.459238">
        <ele>187.114000</ele>
        <time>2008-10-23T23:15:20Z</time>
      </trkpt>
      <trkpt lat="50.690483" lon="6.459550">
        <ele>186.633000</ele>
        <time>2008-10-23T23:15:38Z</time>
      </trkpt>
      <trkpt lat="50.690492" lon="6.459678">
        <ele>186.152000</ele>
        <time>2008-10-23T23:15:45Z</time>
      </trkpt>
      <trkpt lat="50.690504" lon="6.459849">
        <ele>184.711000</ele>
        <time>2008-10-23T23:15:55Z</time>
      </trkpt>
      <trkpt lat="50.690479" lon="6.459918">
        <ele>185.191000</ele>
        <time>2008-10-23T23:15:59Z</time>
      </trkpt>
      <trkpt lat="50.690470" lon="6.460199">
        <ele>186.633000</ele>
        <time>2008-10-23T23:16:15Z</time>
      </trkpt>
      <trkpt lat="50.690456" lon="6.460242">
        <ele>186.633000</ele>
        <time>2008-10-23T23:16:18Z</time>
      </trkpt>
      <trkpt lat="50.690416" lon="6.460364">
        <ele>187.114000</ele>
        <time>2008-10-23T23:16:25Z</time>
      </trkpt>
      <trkpt lat="50.690352" lon="6.460496">
        <ele>189.998000</ele>
        <time>2008-10-23T23:16:35Z</time>
      </trkpt>
      <trkpt lat="50.690284" lon="6.460664">
        <ele>190.478000</ele>
        <time>2008-10-23T23:16:46Z</time>
      </trkpt>
      <trkpt lat="50.690278" lon="6.460678">
        <ele>191.440000</ele>
        <time>2008-10-23T23:16:47Z</time>
      </trkpt>
      <trkpt lat="50.690233" lon="6.460836">
        <ele>191.920000</ele>
        <time>2008-10-23T23:16:57Z</time>
      </trkpt>
      <trkpt lat="50.690200" lon="6.461001">
        <ele>192.401000</ele>
        <time>2008-10-23T23:17:06Z</time>
      </trkpt>
      <trkpt lat="50.690180" lon="6.461051">
        <ele>192.401000</ele>
        <time>2008-10-23T23:17:10Z</time>
      </trkpt>
      <trkpt lat="50.690119" lon="6.461162">
        <ele>192.882000</ele>
        <time>2008-10-23T23:17:18Z</time>
      </trkpt>
      <trkpt lat="50.690059" lon="6.461448">
        <ele>194.804000</ele>
        <time>2008-10-23T23:17:35Z</time>
      </trkpt>
      <trkpt lat="50.689943" lon="6.461660">
        <ele>196.246000</ele>
        <time>2008-10-23T23:17:50Z</time>
      </trkpt>
      <trkpt lat="50.689873" lon="6.461734">
        <ele>196.246000</ele>
        <time>2008-10-23T23:17:58Z</time>
      </trkpt>
      <trkpt lat="50.689828" lon="6.461834">
        <ele>196.727000</ele>
        <time>2008-10-23T23:18:05Z</time>
      </trkpt>
      <trkpt lat="50.689774" lon="6.461858">
        <ele>198.169000</ele>
        <time>2008-10-23T23:18:10Z</time>
      </trkpt>
      <trkpt lat="50.689705" lon="6.461918">
        <ele>198.650000</ele>
        <time>2008-10-23T23:18:17Z</time>
      </trkpt>
      <trkpt lat="50.689677" lon="6.462000">
        <ele>200.572000</ele>
        <time>2008-10-23T23:18:22Z</time>
      </trkpt>
      <trkpt lat="50.689598" lon="6.462219">
        <ele>201.534000</ele>
        <time>2008-10-23T23:18:36Z</time>
      </trkpt>
      <trkpt lat="50.689408" lon="6.462561">
        <ele>202.975000</ele>
        <time>2008-10-23T23:19:01Z</time>
      </trkpt>
      <trkpt lat="50.689383" lon="6.462630">
        <ele>203.456000</ele>
        <time>2008-10-23T23:19:06Z</time>
      </trkpt>
      <trkpt lat="50.689338" lon="6.462694">
        <ele>203.937000</ele>
        <time>2008-10-23T23:19:11Z</time>
      </trkpt>
      <trkpt lat="50.689296" lon="6.462869">
        <ele>204.417000</ele>
        <time>2008-10-23T23:19:22Z</time>
      </trkpt>
      <trkpt lat="50.689254" lon="6.462973">
        <ele>204.898000</ele>
        <time>2008-10-23T23:19:29Z</time>
      </trkpt>
      <trkpt lat="50.689177" lon="6.463252">
        <ele>204.417000</ele>
        <time>2008-10-23T23:19:46Z</time>
      </trkpt>
      <trkpt lat="50.689163" lon="6.463305">
        <ele>205.379000</ele>
        <time>2008-10-23T23:19:49Z</time>
      </trkpt>
      <trkpt lat="50.689117" lon="6.463421">
        <ele>203.937000</ele>
        <time>2008-10-23T23:19:57Z</time>
      </trkpt>
      <trkpt lat="50.689041" lon="6.463684">
        <ele>205.859000</ele>
        <time>2008-10-23T23:20:13Z</time>
      </trkpt>
      <trkpt lat="50.688939" lon="6.463925">
        <ele>205.379000</ele>
        <time>2008-10-23T23:20:29Z</time>
      </trkpt>
      <trkpt lat="50.688852" lon="6.464199">
        <ele>206.340000</ele>
        <time>2008-10-23T23:20:46Z</time>
      </trkpt>
      <trkpt lat="50.688765" lon="6.464529">
        <ele>207.301000</ele>
        <time>2008-10-23T23:21:06Z</time>
      </trkpt>
      <trkpt lat="50.688710" lon="6.464717">
        <ele>206.340000</ele>
        <time>2008-10-23T23:21:18Z</time>
      </trkpt>
      <trkpt lat="50.688714" lon="6.464784">
        <ele>207.301000</ele>
        <time>2008-10-23T23:21:22Z</time>
      </trkpt>
      <trkpt lat="50.688678" lon="6.464897">
        <ele>206.821000</ele>
        <time>2008-10-23T23:21:29Z</time>
      </trkpt>
      <trkpt lat="50.688643" lon="6.465068">
        <ele>208.743000</ele>
        <time>2008-10-23T23:21:39Z</time>
      </trkpt>
      <trkpt lat="50.688638" lon="6.465089">
        <ele>208.263000</ele>
        <time>2008-10-23T23:21:40Z</time>
      </trkpt>
      <trkpt lat="50.688592" lon="6.465271">
        <ele>208.743000</ele>
        <time>2008-10-23T23:21:51Z</time>
      </trkpt>
      <trkpt lat="50.688581" lon="6.465526">
        <ele>207.301000</ele>
        <time>2008-10-23T23:22:05Z</time>
      </trkpt>
      <trkpt lat="50.688562" lon="6.465643">
        <ele>208.743000</ele>
        <time>2008-10-23T23:22:12Z</time>
      </trkpt>
      <trkpt lat="50.688543" lon="6.465854">
        <ele>208.263000</ele>
        <time>2008-10-23T23:22:24Z</time>
      </trkpt>
      <trkpt lat="50.688485" lon="6.466074">
        <ele>207.782000</ele>
        <time>2008-10-23T23:22:37Z</time>
      </trkpt>
      <trkpt lat="50.688429" lon="6.466235">
        <ele>208.743000</ele>
        <time>2008-10-23T23:22:48Z</time>
      </trkpt>
      <trkpt lat="50.688393" lon="6.466265">
        <ele>208.743000</ele>
        <time>2008-10-23T23:22:51Z</time>
      </trkpt>
      <trkpt lat="50.688292" lon="6.466420">
        <ele>209.224000</ele>
        <time>2008-10-23T23:23:04Z</time>
      </trkpt>
      <trkpt lat="50.688269" lon="6.466441">
        <ele>208.743000</ele>
        <time>2008-10-23T23:23:06Z</time>
      </trkpt>
      <trkpt lat="50.688109" lon="6.466557">
        <ele>208.743000</ele>
        <time>2008-10-23T23:23:22Z</time>
      </trkpt>
      <trkpt lat="50.688103" lon="6.466554">
        <ele>209.705000</ele>
        <time>2008-10-23T23:23:22Z</time>
      </trkpt>
      <trkpt lat="50.688060" lon="6.466547">
        <ele>209.224000</ele>
        <time>2008-10-23T23:23:26Z</time>
      </trkpt>
      <trkpt lat="50.688024" lon="6.466583">
        <ele>209.224000</ele>
        <time>2008-10-23T23:23:30Z</time>
      </trkpt>
      <trkpt lat="50.687891" lon="6.466660">
        <ele>208.743000</ele>
        <time>2008-10-23T23:23:42Z</time>
      </trkpt>
      <trkpt lat="50.687880" lon="6.466667">
        <ele>208.743000</ele>
        <time>2008-10-23T23:23:43Z</time>
      </trkpt>
      <trkpt lat="50.687733" lon="6.466826">
        <ele>209.705000</ele>
        <time>2008-10-23T23:23:59Z</time>
      </trkpt>
      <trkpt lat="50.687610" lon="6.467027">
        <ele>209.705000</ele>
        <time>2008-10-23T23:24:15Z</time>
      </trkpt>
      <trkpt lat="50.687534" lon="6.467281">
        <ele>210.185000</ele>
        <time>2008-10-23T23:24:30Z</time>
      </trkpt>
      <trkpt lat="50.687432" lon="6.467585">
        <ele>210.666000</ele>
        <time>2008-10-23T23:24:50Z</time>
      </trkpt>
      <trkpt lat="50.687414" lon="6.467632">
        <ele>211.147000</ele>
        <time>2008-10-23T23:24:53Z</time>
      </trkpt>
      <trkpt lat="50.687386" lon="6.467783">
        <ele>211.147000</ele>
        <time>2008-10-23T23:25:02Z</time>
      </trkpt>
      <trkpt lat="50.687328" lon="6.468065">
        <ele>209.705000</ele>
        <time>2008-10-23T23:25:18Z</time>
      </trkpt>
      <trkpt lat="50.687295" lon="6.468278">
        <ele>209.705000</ele>
        <time>2008-10-23T23:25:30Z</time>
      </trkpt>
      <trkpt lat="50.687294" lon="6.468360">
        <ele>209.224000</ele>
        <time>2008-10-23T23:25:35Z</time>
      </trkpt>
      <trkpt lat="50.687314" lon="6.468481">
        <ele>210.185000</ele>
        <time>2008-10-23T23:25:42Z</time>
      </trkpt>
      <trkpt lat="50.687291" lon="6.468750">
        <ele>208.743000</ele>
        <time>2008-10-23T23:25:57Z</time>
      </trkpt>
      <trkpt lat="50.687228" lon="6.469006">
        <ele>207.782000</ele>
        <time>2008-10-23T23:26:13Z</time>
      </trkpt>
      <trkpt lat="50.687134" lon="6.469203">
        <ele>206.340000</ele>
        <time>2008-10-23T23:26:26Z</time>
      </trkpt>
      <trkpt lat="50.686991" lon="6.469425">
        <ele>204.417000</ele>
        <time>2008-10-23T23:26:44Z</time>
      </trkpt>
      <trkpt lat="50.686806" lon="6.469578">
        <ele>203.937000</ele>
        <time>2008-10-23T23:27:03Z</time>
      </trkpt>
      <trkpt lat="50.686731" lon="6.469582">
        <ele>202.975000</ele>
        <time>2008-10-23T23:27:09Z</time>
      </trkpt>
      <trkpt lat="50.686552" lon="6.469441">
        <ele>202.014000</ele>
        <time>2008-10-23T23:27:27Z</time>
      </trkpt>
      <trkpt lat="50.686500" lon="6.469423">
        <ele>201.534000</ele>
        <time>2008-10-23T23:27:32Z</time>
      </trkpt>
      <trkpt lat="50.686389" lon="6.469325">
        <ele>201.534000</ele>
        <time>2008-10-23T23:27:43Z</time>
      </trkpt>
      <trkpt lat="50.686253" lon="6.469213">
        <ele>201.053000</ele>
        <time>2008-10-23T23:27:56Z</time>
      </trkpt>
      <trkpt lat="50.686107" lon="6.469220">
        <ele>201.053000</ele>
        <time>2008-10-23T23:28:09Z</time>
      </trkpt>
      <trkpt lat="50.686025" lon="6.469325">
        <ele>199.130000</ele>
        <time>2008-10-23T23:28:19Z</time>
      </trkpt>
      <trkpt lat="50.685922" lon="6.469358">
        <ele>196.246000</ele>
        <time>2008-10-23T23:28:28Z</time>
      </trkpt>
      <trkpt lat="50.685872" lon="6.469309">
        <ele>194.804000</ele>
        <time>2008-10-23T23:28:33Z</time>
      </trkpt>
      <trkpt lat="50.685820" lon="6.469273">
        <ele>193.362000</ele>
        <time>2008-10-23T23:28:38Z</time>
      </trkpt>
      <trkpt lat="50.685816" lon="6.469273">
        <ele>192.401000</ele>
        <time>2008-10-23T23:28:39Z</time>
      </trkpt>
      <trkpt lat="50.685793" lon="6.469119">
        <ele>192.882000</ele>
        <time>2008-10-23T23:28:47Z</time>
      </trkpt>
      <trkpt lat="50.685727" lon="6.468955">
        <ele>192.882000</ele>
        <time>2008-10-23T23:28:58Z</time>
      </trkpt>
      <trkpt lat="50.685670" lon="6.468846">
        <ele>192.401000</ele>
        <time>2008-10-23T23:29:06Z</time>
      </trkpt>
      <trkpt lat="50.685659" lon="6.468809">
        <ele>192.882000</ele>
        <time>2008-10-23T23:29:09Z</time>
      </trkpt>
      <trkpt lat="50.685631" lon="6.468597">
        <ele>192.882000</ele>
        <time>2008-10-23T23:29:21Z</time>
      </trkpt>
      <trkpt lat="50.685481" lon="6.468406">
        <ele>193.362000</ele>
        <time>2008-10-23T23:29:38Z</time>
      </trkpt>
      <trkpt lat="50.685408" lon="6.468312">
        <ele>193.843000</ele>
        <time>2008-10-23T23:29:46Z</time>
      </trkpt>
      <trkpt lat="50.685264" lon="6.468166">
        <ele>192.882000</ele>
        <time>2008-10-23T23:30:01Z</time>
      </trkpt>
      <trkpt lat="50.685215" lon="6.468088">
        <ele>192.401000</ele>
        <time>2008-10-23T23:30:07Z</time>
      </trkpt>
      <trkpt lat="50.685181" lon="6.468029">
        <ele>191.920000</ele>
        <time>2008-10-23T23:30:12Z</time>
      </trkpt>
      <trkpt lat="50.684948" lon="6.467932">
        <ele>190.478000</ele>
        <time>2008-10-23T23:30:33Z</time>
      </trkpt>
      <trkpt lat="50.684922" lon="6.467922">
        <ele>191.920000</ele>
        <time>2008-10-23T23:30:35Z</time>
      </trkpt>
      <trkpt lat="50.684899" lon="6.467923">
        <ele>189.517000</ele>
        <time>2008-10-23T23:30:37Z</time>
      </trkpt>
      <trkpt lat="50.684847" lon="6.467869">
        <ele>189.998000</ele>
        <time>2008-10-23T23:30:43Z</time>
      </trkpt>
      <trkpt lat="50.684721" lon="6.467831">
        <ele>189.036000</ele>
        <time>2008-10-23T23:30:54Z</time>
      </trkpt>
      <trkpt lat="50.684609" lon="6.467714">
        <ele>188.556000</ele>
        <time>2008-10-23T23:31:06Z</time>
      </trkpt>
      <trkpt lat="50.684428" lon="6.467624">
        <ele>188.556000</ele>
        <time>2008-10-23T23:31:23Z</time>
      </trkpt>
      <trkpt lat="50.684331" lon="6.467598">
        <ele>188.075000</ele>
        <time>2008-10-23T23:31:32Z</time>
      </trkpt>
      <trkpt lat="50.684151" lon="6.467523">
        <ele>188.075000</ele>
        <time>2008-10-23T23:31:48Z</time>
      </trkpt>
      <trkpt lat="50.683917" lon="6.467524">
        <ele>186.152000</ele>
        <time>2008-10-23T23:32:09Z</time>
      </trkpt>
      <trkpt lat="50.683705" lon="6.467523">
        <ele>187.114000</ele>
        <time>2008-10-23T23:32:28Z</time>
      </trkpt>
      <trkpt lat="50.683520" lon="6.467552">
        <ele>186.633000</ele>
        <time>2008-10-23T23:32:44Z</time>
      </trkpt>
      <trkpt lat="50.683324" lon="6.467577">
        <ele>185.672000</ele>
        <time>2008-10-23T23:33:01Z</time>
      </trkpt>
      <trkpt lat="50.683208" lon="6.467635">
        <ele>185.672000</ele>
        <time>2008-10-23T23:33:12Z</time>
      </trkpt>
      <trkpt lat="50.683155" lon="6.467643">
        <ele>187.114000</ele>
        <time>2008-10-23T23:33:17Z</time>
      </trkpt>
      <trkpt lat="50.682909" lon="6.467570">
        <ele>186.152000</ele>
        <time>2008-10-23T23:33:39Z</time>
      </trkpt>
      <trkpt lat="50.682906" lon="6.467539">
        <ele>185.672000</ele>
        <time>2008-10-23T23:33:41Z</time>
      </trkpt>
      <trkpt lat="50.682866" lon="6.467401">
        <ele>185.191000</ele>
        <time>2008-10-23T23:33:49Z</time>
      </trkpt>
      <trkpt lat="50.682856" lon="6.467104">
        <ele>185.672000</ele>
        <time>2008-10-23T23:34:06Z</time>
      </trkpt>
      <trkpt lat="50.682838" lon="6.466973">
        <ele>186.633000</ele>
        <time>2008-10-23T23:34:13Z</time>
      </trkpt>
      <trkpt lat="50.682829" lon="6.466883">
        <ele>187.114000</ele>
        <time>2008-10-23T23:34:19Z</time>
      </trkpt>
      <trkpt lat="50.682796" lon="6.466684">
        <ele>187.114000</ele>
        <time>2008-10-23T23:34:30Z</time>
      </trkpt>
      <trkpt lat="50.682790" lon="6.466657">
        <ele>186.633000</ele>
        <time>2008-10-23T23:34:32Z</time>
      </trkpt>
      <trkpt lat="50.682736" lon="6.466365">
        <ele>188.075000</ele>
        <time>2008-10-23T23:34:49Z</time>
      </trkpt>
      <trkpt lat="50.682702" lon="6.466115">
        <ele>189.036000</ele>
        <time>2008-10-23T23:35:03Z</time>
      </trkpt>
      <trkpt lat="50.682663" lon="6.465892">
        <ele>189.517000</ele>
        <time>2008-10-23T23:35:16Z</time>
      </trkpt>
      <trkpt lat="50.682610" lon="6.465778">
        <ele>188.556000</ele>
        <time>2008-10-23T23:35:24Z</time>
      </trkpt>
      <trkpt lat="50.682557" lon="6.465715">
        <ele>189.517000</ele>
        <time>2008-10-23T23:35:30Z</time>
      </trkpt>
      <trkpt lat="50.682373" lon="6.465602">
        <ele>189.517000</ele>
        <time>2008-10-23T23:35:47Z</time>
      </trkpt>
      <trkpt lat="50.682175" lon="6.465510">
        <ele>189.036000</ele>
        <time>2008-10-23T23:36:05Z</time>
      </trkpt>
      <trkpt lat="50.682087" lon="6.465459">
        <ele>189.998000</ele>
        <time>2008-10-23T23:36:14Z</time>
      </trkpt>
      <trkpt lat="50.681978" lon="6.465387">
        <ele>189.998000</ele>
        <time>2008-10-23T23:36:24Z</time>
      </trkpt>
      <trkpt lat="50.681777" lon="6.465334">
        <ele>189.036000</ele>
        <time>2008-10-23T23:36:42Z</time>
      </trkpt>
      <trkpt lat="50.681745" lon="6.465319">
        <ele>188.556000</ele>
        <time>2008-10-23T23:36:45Z</time>
      </trkpt>
      <trkpt lat="50.681565" lon="6.465216">
        <ele>189.036000</ele>
        <time>2008-10-23T23:37:02Z</time>
      </trkpt>
      <trkpt lat="50.681483" lon="6.465202">
        <ele>189.036000</ele>
        <time>2008-10-23T23:37:09Z</time>
      </trkpt>
      <trkpt lat="50.681299" lon="6.465105">
        <ele>188.556000</ele>
        <time>2008-10-23T23:37:27Z</time>
      </trkpt>
      <trkpt lat="50.681138" lon="6.465051">
        <ele>187.594000</ele>
        <time>2008-10-23T23:37:41Z</time>
      </trkpt>
      <trkpt lat="50.681116" lon="6.465041">
        <ele>187.594000</ele>
        <time>2008-10-23T23:37:43Z</time>
      </trkpt>
      <trkpt lat="50.681058" lon="6.465029">
        <ele>187.594000</ele>
        <time>2008-10-23T23:37:48Z</time>
      </trkpt>
      <trkpt lat="50.681017" lon="6.464970">
        <ele>187.114000</ele>
        <time>2008-10-23T23:37:53Z</time>
      </trkpt>
      <trkpt lat="50.680952" lon="6.464889">
        <ele>186.633000</ele>
        <time>2008-10-23T23:38:00Z</time>
      </trkpt>
      <trkpt lat="50.680970" lon="6.464897">
        <ele>182.307000</ele>
        <time>2008-10-23T23:38:02Z</time>
      </trkpt>
      <trkpt lat="50.680972" lon="6.464898">
        <ele>189.517000</ele>
        <time>2008-10-23T23:38:02Z</time>
      </trkpt>
      <trkpt lat="50.680976" lon="6.464898">
        <ele>185.191000</ele>
        <time>2008-10-23T23:38:03Z</time>
      </trkpt>
      <trkpt lat="50.680988" lon="6.464939">
        <ele>185.672000</ele>
        <time>2008-10-23T23:38:05Z</time>
      </trkpt>
      <trkpt lat="50.680880" lon="6.464985">
        <ele>182.307000</ele>
        <time>2008-10-23T23:38:15Z</time>
      </trkpt>
      <trkpt lat="50.680715" lon="6.464948">
        <ele>184.230000</ele>
        <time>2008-10-23T23:38:30Z</time>
      </trkpt>
      <trkpt lat="50.680562" lon="6.464934">
        <ele>184.230000</ele>
        <time>2008-10-23T23:38:43Z</time>
      </trkpt>
      <trkpt lat="50.680306" lon="6.464956">
        <ele>186.152000</ele>
        <time>2008-10-23T23:39:06Z</time>
      </trkpt>
      <trkpt lat="50.680172" lon="6.464933">
        <ele>187.114000</ele>
        <time>2008-10-23T23:39:18Z</time>
      </trkpt>
      <trkpt lat="50.680152" lon="6.464929">
        <ele>187.594000</ele>
        <time>2008-10-23T23:39:20Z</time>
      </trkpt>
      <trkpt lat="50.680033" lon="6.464761">
        <ele>188.075000</ele>
        <time>2008-10-23T23:39:34Z</time>
      </trkpt>
      <trkpt lat="50.679889" lon="6.464653">
        <ele>188.556000</ele>
        <time>2008-10-23T23:39:48Z</time>
      </trkpt>
      <trkpt lat="50.679780" lon="6.464562">
        <ele>189.517000</ele>
        <time>2008-10-23T23:39:59Z</time>
      </trkpt>
      <trkpt lat="50.679690" lon="6.464402">
        <ele>190.478000</ele>
        <time>2008-10-23T23:40:11Z</time>
      </trkpt>
      <trkpt lat="50.679537" lon="6.464286">
        <ele>192.401000</ele>
        <time>2008-10-23T23:40:26Z</time>
      </trkpt>
      <trkpt lat="50.679467" lon="6.464119">
        <ele>191.920000</ele>
        <time>2008-10-23T23:40:37Z</time>
      </trkpt>
      <trkpt lat="50.679428" lon="6.463957">
        <ele>192.401000</ele>
        <time>2008-10-23T23:40:47Z</time>
      </trkpt>
      <trkpt lat="50.679356" lon="6.463728">
        <ele>194.324000</ele>
        <time>2008-10-23T23:41:01Z</time>
      </trkpt>
      <trkpt lat="50.679260" lon="6.463392">
        <ele>195.766000</ele>
        <time>2008-10-23T23:41:22Z</time>
      </trkpt>
      <trkpt lat="50.679237" lon="6.463200">
        <ele>195.285000</ele>
        <time>2008-10-23T23:41:33Z</time>
      </trkpt>
      <trkpt lat="50.679214" lon="6.462972">
        <ele>195.766000</ele>
        <time>2008-10-23T23:41:46Z</time>
      </trkpt>
      <trkpt lat="50.679141" lon="6.462640">
        <ele>198.169000</ele>
        <time>2008-10-23T23:42:05Z</time>
      </trkpt>
      <trkpt lat="50.679125" lon="6.462455">
        <ele>197.688000</ele>
        <time>2008-10-23T23:42:16Z</time>
      </trkpt>
      <trkpt lat="50.679038" lon="6.462241">
        <ele>199.611000</ele>
        <time>2008-10-23T23:42:30Z</time>
      </trkpt>
      <trkpt lat="50.678957" lon="6.462013">
        <ele>200.092000</ele>
        <time>2008-10-23T23:42:45Z</time>
      </trkpt>
      <trkpt lat="50.678880" lon="6.461848">
        <ele>201.053000</ele>
        <time>2008-10-23T23:42:56Z</time>
      </trkpt>
      <trkpt lat="50.678831" lon="6.461751">
        <ele>202.495000</ele>
        <time>2008-10-23T23:43:03Z</time>
      </trkpt>
      <trkpt lat="50.678843" lon="6.461667">
        <ele>202.495000</ele>
        <time>2008-10-23T23:43:08Z</time>
      </trkpt>
      <trkpt lat="50.678830" lon="6.461491">
        <ele>202.975000</ele>
        <time>2008-10-23T23:43:18Z</time>
      </trkpt>
      <trkpt lat="50.678771" lon="6.461300">
        <ele>205.379000</ele>
        <time>2008-10-23T23:43:30Z</time>
      </trkpt>
      <trkpt lat="50.678755" lon="6.461269">
        <ele>204.898000</ele>
        <time>2008-10-23T23:43:32Z</time>
      </trkpt>
      <trkpt lat="50.678687" lon="6.460964">
        <ele>206.340000</ele>
        <time>2008-10-23T23:43:50Z</time>
      </trkpt>
      <trkpt lat="50.678632" lon="6.460861">
        <ele>208.263000</ele>
        <time>2008-10-23T23:43:58Z</time>
      </trkpt>
      <trkpt lat="50.678557" lon="6.460949">
        <ele>211.627000</ele>
        <time>2008-10-23T23:44:06Z</time>
      </trkpt>
      <trkpt lat="50.678389" lon="6.461053">
        <ele>214.031000</ele>
        <time>2008-10-23T23:44:22Z</time>
      </trkpt>
      <trkpt lat="50.678320" lon="6.461083">
        <ele>213.069000</ele>
        <time>2008-10-23T23:44:28Z</time>
      </trkpt>
      <trkpt lat="50.678208" lon="6.461193">
        <ele>215.473000</ele>
        <time>2008-10-23T23:44:40Z</time>
      </trkpt>
      <trkpt lat="50.678129" lon="6.461344">
        <ele>217.395000</ele>
        <time>2008-10-23T23:44:51Z</time>
      </trkpt>
      <trkpt lat="50.677942" lon="6.461653">
        <ele>218.837000</ele>
        <time>2008-10-23T23:45:15Z</time>
      </trkpt>
      <trkpt lat="50.677794" lon="6.462046">
        <ele>218.357000</ele>
        <time>2008-10-23T23:45:40Z</time>
      </trkpt>
      <trkpt lat="50.677706" lon="6.462323">
        <ele>219.799000</ele>
        <time>2008-10-23T23:45:58Z</time>
      </trkpt>
      <trkpt lat="50.677523" lon="6.462567">
        <ele>219.318000</ele>
        <time>2008-10-23T23:46:19Z</time>
      </trkpt>
      <trkpt lat="50.677438" lon="6.462701">
        <ele>219.799000</ele>
        <time>2008-10-23T23:46:30Z</time>
      </trkpt>
      <trkpt lat="50.677276" lon="6.463145">
        <ele>222.202000</ele>
        <time>2008-10-23T23:46:58Z</time>
      </trkpt>
      <trkpt lat="50.677014" lon="6.463554">
        <ele>222.682000</ele>
        <time>2008-10-23T23:47:31Z</time>
      </trkpt>
      <trkpt lat="50.676770" lon="6.463824">
        <ele>223.163000</ele>
        <time>2008-10-23T23:47:57Z</time>
      </trkpt>
      <trkpt lat="50.676685" lon="6.463941">
        <ele>224.125000</ele>
        <time>2008-10-23T23:48:07Z</time>
      </trkpt>
      <trkpt lat="50.676455" lon="6.464019">
        <ele>221.721000</ele>
        <time>2008-10-23T23:48:28Z</time>
      </trkpt>
      <trkpt lat="50.676248" lon="6.464116">
        <ele>218.357000</ele>
        <time>2008-10-23T23:48:47Z</time>
      </trkpt>
      <trkpt lat="50.676171" lon="6.464171">
        <ele>219.799000</ele>
        <time>2008-10-23T23:48:55Z</time>
      </trkpt>
      <trkpt lat="50.675994" lon="6.464333">
        <ele>215.473000</ele>
        <time>2008-10-23T23:49:13Z</time>
      </trkpt>
      <trkpt lat="50.675855" lon="6.464447">
        <ele>212.589000</ele>
        <time>2008-10-23T23:49:26Z</time>
      </trkpt>
      <trkpt lat="50.675744" lon="6.464499">
        <ele>210.185000</ele>
        <time>2008-10-23T23:49:37Z</time>
      </trkpt>
      <trkpt lat="50.675490" lon="6.464695">
        <ele>209.224000</ele>
        <time>2008-10-23T23:50:02Z</time>
      </trkpt>
      <trkpt lat="50.675266" lon="6.464859">
        <ele>208.743000</ele>
        <time>2008-10-23T23:50:24Z</time>
      </trkpt>
      <trkpt lat="50.675085" lon="6.464973">
        <ele>208.263000</ele>
        <time>2008-10-23T23:50:41Z</time>
      </trkpt>
      <trkpt lat="50.674911" lon="6.465188">
        <ele>208.263000</ele>
        <time>2008-10-23T23:51:00Z</time>
      </trkpt>
      <trkpt lat="50.674779" lon="6.465248">
        <ele>208.263000</ele>
        <time>2008-10-23T23:51:12Z</time>
      </trkpt>
      <trkpt lat="50.674596" lon="6.465328">
        <ele>206.821000</ele>
        <time>2008-10-23T23:51:29Z</time>
      </trkpt>
      <trkpt lat="50.674440" lon="6.465321">
        <ele>206.821000</ele>
        <time>2008-10-23T23:51:43Z</time>
      </trkpt>
      <trkpt lat="50.674315" lon="6.465407">
        <ele>206.821000</ele>
        <time>2008-10-23T23:51:55Z</time>
      </trkpt>
      <trkpt lat="50.674169" lon="6.465595">
        <ele>206.821000</ele>
        <time>2008-10-23T23:52:12Z</time>
      </trkpt>
      <trkpt lat="50.673924" lon="6.465976">
        <ele>207.301000</ele>
        <time>2008-10-23T23:52:42Z</time>
      </trkpt>
      <trkpt lat="50.673849" lon="6.466295">
        <ele>205.859000</ele>
        <time>2008-10-23T23:53:01Z</time>
      </trkpt>
      <trkpt lat="50.673795" lon="6.466590">
        <ele>203.937000</ele>
        <time>2008-10-23T23:53:18Z</time>
      </trkpt>
      <trkpt lat="50.673766" lon="6.466785">
        <ele>202.014000</ele>
        <time>2008-10-23T23:53:30Z</time>
      </trkpt>
      <trkpt lat="50.673756" lon="6.467004">
        <ele>201.534000</ele>
        <time>2008-10-23T23:53:42Z</time>
      </trkpt>
      <trkpt lat="50.673660" lon="6.467220">
        <ele>200.092000</ele>
        <time>2008-10-23T23:53:57Z</time>
      </trkpt>
      <trkpt lat="50.673666" lon="6.467296">
        <ele>199.130000</ele>
        <time>2008-10-23T23:54:01Z</time>
      </trkpt>
      <trkpt lat="50.673701" lon="6.467320">
        <ele>198.650000</ele>
        <time>2008-10-23T23:54:04Z</time>
      </trkpt>
      <trkpt lat="50.673711" lon="6.467450">
        <ele>197.208000</ele>
        <time>2008-10-23T23:54:12Z</time>
      </trkpt>
      <trkpt lat="50.673728" lon="6.467597">
        <ele>197.688000</ele>
        <time>2008-10-23T23:54:20Z</time>
      </trkpt>
      <trkpt lat="50.673740" lon="6.467685">
        <ele>197.208000</ele>
        <time>2008-10-23T23:54:25Z</time>
      </trkpt>
      <trkpt lat="50.673719" lon="6.467821">
        <ele>196.246000</ele>
        <time>2008-10-23T23:54:33Z</time>
      </trkpt>
      <trkpt lat="50.673738" lon="6.468111">
        <ele>195.766000</ele>
        <time>2008-10-23T23:54:49Z</time>
      </trkpt>
      <trkpt lat="50.673753" lon="6.468409">
        <ele>193.843000</ele>
        <time>2008-10-23T23:55:06Z</time>
      </trkpt>
      <trkpt lat="50.673825" lon="6.468704">
        <ele>194.324000</ele>
        <time>2008-10-23T23:55:24Z</time>
      </trkpt>
      <trkpt lat="50.673833" lon="6.468787">
        <ele>191.920000</ele>
        <time>2008-10-23T23:55:29Z</time>
      </trkpt>
      <trkpt lat="50.673837" lon="6.468916">
        <ele>192.401000</ele>
        <time>2008-10-23T23:55:36Z</time>
      </trkpt>
      <trkpt lat="50.673859" lon="6.469103">
        <ele>191.920000</ele>
        <time>2008-10-23T23:55:46Z</time>
      </trkpt>
      <trkpt lat="50.673862" lon="6.469435">
        <ele>191.440000</ele>
        <time>2008-10-23T23:56:05Z</time>
      </trkpt>
      <trkpt lat="50.673842" lon="6.469680">
        <ele>189.998000</ele>
        <time>2008-10-23T23:56:19Z</time>
      </trkpt>
      <trkpt lat="50.673829" lon="6.470046">
        <ele>189.998000</ele>
        <time>2008-10-23T23:56:39Z</time>
      </trkpt>
      <trkpt lat="50.673814" lon="6.470218">
        <ele>189.998000</ele>
        <time>2008-10-23T23:56:49Z</time>
      </trkpt>
      <trkpt lat="50.673796" lon="6.470446">
        <ele>190.478000</ele>
        <time>2008-10-23T23:57:02Z</time>
      </trkpt>
      <trkpt lat="50.673799" lon="6.470534">
        <ele>190.478000</ele>
        <time>2008-10-23T23:57:07Z</time>
      </trkpt>
      <trkpt lat="50.673791" lon="6.470616">
        <ele>189.998000</ele>
        <time>2008-10-23T23:57:12Z</time>
      </trkpt>
      <trkpt lat="50.673753" lon="6.470869">
        <ele>191.440000</ele>
        <time>2008-10-23T23:57:26Z</time>
      </trkpt>
      <trkpt lat="50.673752" lon="6.470892">
        <ele>190.959000</ele>
        <time>2008-10-23T23:57:27Z</time>
      </trkpt>
      <trkpt lat="50.673734" lon="6.470969">
        <ele>190.478000</ele>
        <time>2008-10-23T23:57:32Z</time>
      </trkpt>
      <trkpt lat="50.673690" lon="6.471177">
        <ele>190.478000</ele>
        <time>2008-10-23T23:57:44Z</time>
      </trkpt>
      <trkpt lat="50.673611" lon="6.471505">
        <ele>190.478000</ele>
        <time>2008-10-23T23:58:04Z</time>
      </trkpt>
      <trkpt lat="50.673558" lon="6.471814">
        <ele>189.998000</ele>
        <time>2008-10-23T23:58:22Z</time>
      </trkpt>
      <trkpt lat="50.673525" lon="6.472059">
        <ele>189.036000</ele>
        <time>2008-10-23T23:58:36Z</time>
      </trkpt>
      <trkpt lat="50.673497" lon="6.472350">
        <ele>189.517000</ele>
        <time>2008-10-23T23:58:52Z</time>
      </trkpt>
      <trkpt lat="50.673499" lon="6.472374">
        <ele>189.036000</ele>
        <time>2008-10-23T23:58:54Z</time>
      </trkpt>
      <trkpt lat="50.673510" lon="6.472496">
        <ele>188.556000</ele>
        <time>2008-10-23T23:59:01Z</time>
      </trkpt>
      <trkpt lat="50.673490" lon="6.472713">
        <ele>190.478000</ele>
        <time>2008-10-23T23:59:13Z</time>
      </trkpt>
      <trkpt lat="50.673481" lon="6.472719">
        <ele>191.440000</ele>
        <time>2008-10-23T23:59:14Z</time>
      </trkpt>
      <trkpt lat="50.673436" lon="6.472683">
        <ele>191.920000</ele>
        <time>2008-10-23T23:59:18Z</time>
      </trkpt>
      <trkpt lat="50.673317" lon="6.472662">
        <ele>193.362000</ele>
        <time>2008-10-23T23:59:29Z</time>
      </trkpt>
      <trkpt lat="50.673225" lon="6.472645">
        <ele>191.920000</ele>
        <time>2008-10-23T23:59:37Z</time>
      </trkpt>
      <trkpt lat="50.673057" lon="6.472590">
        <ele>193.843000</ele>
        <time>2008-10-23T23:59:52Z</time>
      </trkpt>
      <trkpt lat="50.673002" lon="6.472585">
        <ele>194.324000</ele>
        <time>2008-10-23T23:59:57Z</time>
      </trkpt>
      <trkpt lat="50.672873" lon="6.472548">
        <ele>194.804000</ele>
        <time>2008-10-24T00:00:09Z</time>
      </trkpt>
      <trkpt lat="50.672774" lon="6.472548">
        <ele>197.688000</ele>
        <time>2008-10-24T00:00:18Z</time>
      </trkpt>
      <trkpt lat="50.672676" lon="6.472543">
        <ele>197.688000</ele>
        <time>2008-10-24T00:00:26Z</time>
      </trkpt>
      <trkpt lat="50.672656" lon="6.472542">
        <ele>197.208000</ele>
        <time>2008-10-24T00:00:28Z</time>
      </trkpt>
      <trkpt lat="50.672604" lon="6.472534">
        <ele>198.650000</ele>
        <time>2008-10-24T00:00:33Z</time>
      </trkpt>
      <trkpt lat="50.672429" lon="6.472429">
        <ele>198.650000</ele>
        <time>2008-10-24T00:00:49Z</time>
      </trkpt>
      <trkpt lat="50.672338" lon="6.472332">
        <ele>198.650000</ele>
        <time>2008-10-24T00:00:59Z</time>
      </trkpt>
      <trkpt lat="50.672286" lon="6.472288">
        <ele>199.130000</ele>
        <time>2008-10-24T00:01:04Z</time>
      </trkpt>
      <trkpt lat="50.672232" lon="6.472245">
        <ele>200.092000</ele>
        <time>2008-10-24T00:01:09Z</time>
      </trkpt>
      <trkpt lat="50.672224" lon="6.472218">
        <ele>199.611000</ele>
        <time>2008-10-24T00:01:11Z</time>
      </trkpt>
      <trkpt lat="50.672054" lon="6.472080">
        <ele>201.053000</ele>
        <time>2008-10-24T00:01:28Z</time>
      </trkpt>
      <trkpt lat="50.671915" lon="6.471937">
        <ele>202.975000</ele>
        <time>2008-10-24T00:01:43Z</time>
      </trkpt>
      <trkpt lat="50.671727" lon="6.471779">
        <ele>203.456000</ele>
        <time>2008-10-24T00:02:01Z</time>
      </trkpt>
      <trkpt lat="50.671717" lon="6.471768">
        <ele>203.456000</ele>
        <time>2008-10-24T00:02:03Z</time>
      </trkpt>
      <trkpt lat="50.671613" lon="6.471645">
        <ele>205.859000</ele>
        <time>2008-10-24T00:02:14Z</time>
      </trkpt>
      <trkpt lat="50.671470" lon="6.471508">
        <ele>207.301000</ele>
        <time>2008-10-24T00:02:29Z</time>
      </trkpt>
      <trkpt lat="50.671454" lon="6.471494">
        <ele>207.782000</ele>
        <time>2008-10-24T00:02:30Z</time>
      </trkpt>
      <trkpt lat="50.671335" lon="6.471426">
        <ele>209.224000</ele>
        <time>2008-10-24T00:02:42Z</time>
      </trkpt>
      <trkpt lat="50.671273" lon="6.471378">
        <ele>211.147000</ele>
        <time>2008-10-24T00:02:48Z</time>
      </trkpt>
      <trkpt lat="50.671246" lon="6.471360">
        <ele>210.666000</ele>
        <time>2008-10-24T00:02:50Z</time>
      </trkpt>
      <trkpt lat="50.671214" lon="6.471325">
        <ele>211.147000</ele>
        <time>2008-10-24T00:02:54Z</time>
      </trkpt>
      <trkpt lat="50.671195" lon="6.471310">
        <ele>211.627000</ele>
        <time>2008-10-24T00:02:56Z</time>
      </trkpt>
      <trkpt lat="50.670989" lon="6.471350">
        <ele>212.589000</ele>
        <time>2008-10-24T00:03:14Z</time>
      </trkpt>
      <trkpt lat="50.670894" lon="6.471544">
        <ele>213.069000</ele>
        <time>2008-10-24T00:03:28Z</time>
      </trkpt>
      <trkpt lat="50.670816" lon="6.471851">
        <ele>211.627000</ele>
        <time>2008-10-24T00:03:46Z</time>
      </trkpt>
      <trkpt lat="50.670816" lon="6.472185">
        <ele>212.589000</ele>
        <time>2008-10-24T00:04:05Z</time>
      </trkpt>
      <trkpt lat="50.670827" lon="6.472416">
        <ele>213.069000</ele>
        <time>2008-10-24T00:04:18Z</time>
      </trkpt>
      <trkpt lat="50.670773" lon="6.472512">
        <ele>214.511000</ele>
        <time>2008-10-24T00:04:25Z</time>
      </trkpt>
      <trkpt lat="50.670688" lon="6.472525">
        <ele>214.992000</ele>
        <time>2008-10-24T00:04:33Z</time>
      </trkpt>
      <trkpt lat="50.670654" lon="6.472513">
        <ele>214.992000</ele>
        <time>2008-10-24T00:04:36Z</time>
      </trkpt>
      <trkpt lat="50.670505" lon="6.472460">
        <ele>216.915000</ele>
        <time>2008-10-24T00:04:49Z</time>
      </trkpt>
      <trkpt lat="50.670342" lon="6.472379">
        <ele>217.876000</ele>
        <time>2008-10-24T00:05:04Z</time>
      </trkpt>
      <trkpt lat="50.670218" lon="6.472279">
        <ele>218.837000</ele>
        <time>2008-10-24T00:05:17Z</time>
      </trkpt>
      <trkpt lat="50.670158" lon="6.472259">
        <ele>219.318000</ele>
        <time>2008-10-24T00:05:22Z</time>
      </trkpt>
      <trkpt lat="50.670016" lon="6.472156">
        <ele>223.644000</ele>
        <time>2008-10-24T00:05:36Z</time>
      </trkpt>
      <trkpt lat="50.670010" lon="6.472150">
        <ele>223.163000</ele>
        <time>2008-10-24T00:05:37Z</time>
      </trkpt>
      <trkpt lat="50.669949" lon="6.472111">
        <ele>223.163000</ele>
        <time>2008-10-24T00:05:42Z</time>
      </trkpt>
      <trkpt lat="50.669921" lon="6.472090">
        <ele>225.567000</ele>
        <time>2008-10-24T00:05:45Z</time>
      </trkpt>
      <trkpt lat="50.669860" lon="6.471991">
        <ele>226.047000</ele>
        <time>2008-10-24T00:05:53Z</time>
      </trkpt>
      <trkpt lat="50.669859" lon="6.471948">
        <ele>226.528000</ele>
        <time>2008-10-24T00:05:55Z</time>
      </trkpt>
      <trkpt lat="50.669856" lon="6.471873">
        <ele>227.970000</ele>
        <time>2008-10-24T00:06:00Z</time>
      </trkpt>
      <trkpt lat="50.669871" lon="6.471772">
        <ele>229.892000</ele>
        <time>2008-10-24T00:06:05Z</time>
      </trkpt>
      <trkpt lat="50.669921" lon="6.471570">
        <ele>229.892000</ele>
        <time>2008-10-24T00:06:17Z</time>
      </trkpt>
      <trkpt lat="50.669972" lon="6.471281">
        <ele>229.412000</ele>
        <time>2008-10-24T00:06:34Z</time>
      </trkpt>
      <trkpt lat="50.670003" lon="6.471155">
        <ele>231.334000</ele>
        <time>2008-10-24T00:06:42Z</time>
      </trkpt>
      <trkpt lat="50.670052" lon="6.470980">
        <ele>231.815000</ele>
        <time>2008-10-24T00:06:53Z</time>
      </trkpt>
      <trkpt lat="50.670067" lon="6.470940">
        <ele>231.815000</ele>
        <time>2008-10-24T00:06:55Z</time>
      </trkpt>
      <trkpt lat="50.670074" lon="6.470852">
        <ele>232.776000</ele>
        <time>2008-10-24T00:07:00Z</time>
      </trkpt>
      <trkpt lat="50.670045" lon="6.470762">
        <ele>233.257000</ele>
        <time>2008-10-24T00:07:06Z</time>
      </trkpt>
      <trkpt lat="50.669915" lon="6.470646">
        <ele>233.257000</ele>
        <time>2008-10-24T00:07:19Z</time>
      </trkpt>
      <trkpt lat="50.669766" lon="6.470631">
        <ele>234.218000</ele>
        <time>2008-10-24T00:07:32Z</time>
      </trkpt>
      <trkpt lat="50.669552" lon="6.470597">
        <ele>234.218000</ele>
        <time>2008-10-24T00:07:51Z</time>
      </trkpt>
      <trkpt lat="50.669503" lon="6.470554">
        <ele>234.218000</ele>
        <time>2008-10-24T00:07:56Z</time>
      </trkpt>
      <trkpt lat="50.669344" lon="6.470414">
        <ele>234.699000</ele>
        <time>2008-10-24T00:08:12Z</time>
      </trkpt>
      <trkpt lat="50.669290" lon="6.470382">
        <ele>233.738000</ele>
        <time>2008-10-24T00:08:17Z</time>
      </trkpt>
      <trkpt lat="50.669038" lon="6.470310">
        <ele>232.296000</ele>
        <time>2008-10-24T00:08:40Z</time>
      </trkpt>
      <trkpt lat="50.668810" lon="6.470275">
        <ele>228.931000</ele>
        <time>2008-10-24T00:09:00Z</time>
      </trkpt>
      <trkpt lat="50.668677" lon="6.470207">
        <ele>227.009000</ele>
        <time>2008-10-24T00:09:13Z</time>
      </trkpt>
      <trkpt lat="50.668526" lon="6.470226">
        <ele>226.047000</ele>
        <time>2008-10-24T00:09:26Z</time>
      </trkpt>
      <trkpt lat="50.668409" lon="6.470159">
        <ele>225.086000</ele>
        <time>2008-10-24T00:09:37Z</time>
      </trkpt>
      <trkpt lat="50.668253" lon="6.469953">
        <ele>225.567000</ele>
        <time>2008-10-24T00:09:55Z</time>
      </trkpt>
      <trkpt lat="50.668171" lon="6.469879">
        <ele>226.047000</ele>
        <time>2008-10-24T00:10:03Z</time>
      </trkpt>
      <trkpt lat="50.668116" lon="6.469819">
        <ele>225.567000</ele>
        <time>2008-10-24T00:10:09Z</time>
      </trkpt>
      <trkpt lat="50.668060" lon="6.469752">
        <ele>226.047000</ele>
        <time>2008-10-24T00:10:15Z</time>
      </trkpt>
      <trkpt lat="50.668033" lon="6.469728">
        <ele>226.528000</ele>
        <time>2008-10-24T00:10:18Z</time>
      </trkpt>
      <trkpt lat="50.668038" lon="6.469530">
        <ele>227.970000</ele>
        <time>2008-10-24T00:10:29Z</time>
      </trkpt>
      <trkpt lat="50.667957" lon="6.469309">
        <ele>232.296000</ele>
        <time>2008-10-24T00:10:44Z</time>
      </trkpt>
      <trkpt lat="50.667937" lon="6.469259">
        <ele>230.854000</ele>
        <time>2008-10-24T00:10:47Z</time>
      </trkpt>
      <trkpt lat="50.667914" lon="6.469187">
        <ele>230.373000</ele>
        <time>2008-10-24T00:10:51Z</time>
      </trkpt>
      <trkpt lat="50.667884" lon="6.469079">
        <ele>232.296000</ele>
        <time>2008-10-24T00:10:58Z</time>
      </trkpt>
      <trkpt lat="50.667868" lon="6.469076">
        <ele>233.257000</ele>
        <time>2008-10-24T00:10:59Z</time>
      </trkpt>
      <trkpt lat="50.667806" lon="6.468801">
        <ele>234.699000</ele>
        <time>2008-10-24T00:11:16Z</time>
      </trkpt>
      <trkpt lat="50.667751" lon="6.468592">
        <ele>237.583000</ele>
        <time>2008-10-24T00:11:29Z</time>
      </trkpt>
      <trkpt lat="50.667702" lon="6.468527">
        <ele>238.544000</ele>
        <time>2008-10-24T00:11:34Z</time>
      </trkpt>
      <trkpt lat="50.667671" lon="6.468250">
        <ele>238.544000</ele>
        <time>2008-10-24T00:11:50Z</time>
      </trkpt>
      <trkpt lat="50.667659" lon="6.468220">
        <ele>239.505000</ele>
        <time>2008-10-24T00:11:52Z</time>
      </trkpt>
      <trkpt lat="50.667554" lon="6.468118">
        <ele>240.467000</ele>
        <time>2008-10-24T00:12:03Z</time>
      </trkpt>
      <trkpt lat="50.667622" lon="6.468155">
        <ele>241.428000</ele>
        <time>2008-10-24T00:12:09Z</time>
      </trkpt>
      <trkpt lat="50.667591" lon="6.468178">
        <ele>239.505000</ele>
        <time>2008-10-24T00:12:12Z</time>
      </trkpt>
      <trkpt lat="50.667556" lon="6.468155">
        <ele>240.467000</ele>
        <time>2008-10-24T00:12:16Z</time>
      </trkpt>
      <trkpt lat="50.667537" lon="6.468115">
        <ele>239.986000</ele>
        <time>2008-10-24T00:12:18Z</time>
      </trkpt>
      <trkpt lat="50.667487" lon="6.468003">
        <ele>239.505000</ele>
        <time>2008-10-24T00:12:26Z</time>
      </trkpt>
      <trkpt lat="50.667394" lon="6.467896">
        <ele>239.986000</ele>
        <time>2008-10-24T00:12:36Z</time>
      </trkpt>
      <trkpt lat="50.667275" lon="6.467732">
        <ele>239.025000</ele>
        <time>2008-10-24T00:12:50Z</time>
      </trkpt>
      <trkpt lat="50.667169" lon="6.467535">
        <ele>238.544000</ele>
        <time>2008-10-24T00:13:05Z</time>
      </trkpt>
      <trkpt lat="50.666962" lon="6.467191">
        <ele>237.583000</ele>
        <time>2008-10-24T00:13:31Z</time>
      </trkpt>
      <trkpt lat="50.666958" lon="6.467185">
        <ele>238.064000</ele>
        <time>2008-10-24T00:13:32Z</time>
      </trkpt>
      <trkpt lat="50.666917" lon="6.467192">
        <ele>238.064000</ele>
        <time>2008-10-24T00:13:35Z</time>
      </trkpt>
      <trkpt lat="50.666790" lon="6.467127">
        <ele>236.141000</ele>
        <time>2008-10-24T00:13:47Z</time>
      </trkpt>
      <trkpt lat="50.666748" lon="6.466956">
        <ele>235.660000</ele>
        <time>2008-10-24T00:13:57Z</time>
      </trkpt>
      <trkpt lat="50.666613" lon="6.466740">
        <ele>237.102000</ele>
        <time>2008-10-24T00:14:14Z</time>
      </trkpt>
      <trkpt lat="50.666488" lon="6.466450">
        <ele>236.141000</ele>
        <time>2008-10-24T00:14:34Z</time>
      </trkpt>
      <trkpt lat="50.666326" lon="6.466435">
        <ele>232.776000</ele>
        <time>2008-10-24T00:14:49Z</time>
      </trkpt>
      <trkpt lat="50.666136" lon="6.466108">
        <ele>229.892000</ele>
        <time>2008-10-24T00:15:13Z</time>
      </trkpt>
      <trkpt lat="50.665937" lon="6.465848">
        <ele>227.489000</ele>
        <time>2008-10-24T00:15:36Z</time>
      </trkpt>
      <trkpt lat="50.665887" lon="6.465791">
        <ele>226.528000</ele>
        <time>2008-10-24T00:15:42Z</time>
      </trkpt>
      <trkpt lat="50.665871" lon="6.465788">
        <ele>225.086000</ele>
        <time>2008-10-24T00:15:43Z</time>
      </trkpt>
      <trkpt lat="50.665747" lon="6.465531">
        <ele>221.721000</ele>
        <time>2008-10-24T00:16:01Z</time>
      </trkpt>
      <trkpt lat="50.665633" lon="6.465456">
        <ele>222.202000</ele>
        <time>2008-10-24T00:16:12Z</time>
      </trkpt>
      <trkpt lat="50.665582" lon="6.465181">
        <ele>221.241000</ele>
        <time>2008-10-24T00:16:28Z</time>
      </trkpt>
      <trkpt lat="50.665447" lon="6.465081">
        <ele>222.682000</ele>
        <time>2008-10-24T00:16:41Z</time>
      </trkpt>
      <trkpt lat="50.665298" lon="6.465000">
        <ele>222.682000</ele>
        <time>2008-10-24T00:16:55Z</time>
      </trkpt>
      <trkpt lat="50.665197" lon="6.464989">
        <ele>223.644000</ele>
        <time>2008-10-24T00:17:04Z</time>
      </trkpt>
      <trkpt lat="50.665129" lon="6.464907">
        <ele>224.125000</ele>
        <time>2008-10-24T00:17:12Z</time>
      </trkpt>
      <trkpt lat="50.665061" lon="6.464856">
        <ele>226.047000</ele>
        <time>2008-10-24T00:17:18Z</time>
      </trkpt>
      <trkpt lat="50.664725" lon="6.464856">
        <ele>228.450000</ele>
        <time>2008-10-24T00:17:48Z</time>
      </trkpt>
      <trkpt lat="50.664469" lon="6.464571">
        <ele>228.931000</ele>
        <time>2008-10-24T00:18:16Z</time>
      </trkpt>
      <trkpt lat="50.664222" lon="6.464297">
        <ele>229.412000</ele>
        <time>2008-10-24T00:18:43Z</time>
      </trkpt>
      <trkpt lat="50.664145" lon="6.464228">
        <ele>229.412000</ele>
        <time>2008-10-24T00:18:50Z</time>
      </trkpt>
      <trkpt lat="50.663963" lon="6.464140">
        <ele>229.412000</ele>
        <time>2008-10-24T00:19:07Z</time>
      </trkpt>
      <trkpt lat="50.663847" lon="6.464051">
        <ele>230.854000</ele>
        <time>2008-10-24T00:19:19Z</time>
      </trkpt>
      <trkpt lat="50.663693" lon="6.463955">
        <ele>230.854000</ele>
        <time>2008-10-24T00:19:33Z</time>
      </trkpt>
      <trkpt lat="50.663574" lon="6.463833">
        <ele>230.373000</ele>
        <time>2008-10-24T00:19:46Z</time>
      </trkpt>
      <trkpt lat="50.663319" lon="6.463522">
        <ele>231.815000</ele>
        <time>2008-10-24T00:20:14Z</time>
      </trkpt>
      <trkpt lat="50.663332" lon="6.463330">
        <ele>233.257000</ele>
        <time>2008-10-24T00:20:25Z</time>
      </trkpt>
      <trkpt lat="50.663220" lon="6.463083">
        <ele>234.218000</ele>
        <time>2008-10-24T00:20:42Z</time>
      </trkpt>
      <trkpt lat="50.663165" lon="6.462882">
        <ele>235.180000</ele>
        <time>2008-10-24T00:20:54Z</time>
      </trkpt>
      <trkpt lat="50.663017" lon="6.462551">
        <ele>235.180000</ele>
        <time>2008-10-24T00:21:17Z</time>
      </trkpt>
      <trkpt lat="50.662961" lon="6.462383">
        <ele>236.141000</ele>
        <time>2008-10-24T00:21:28Z</time>
      </trkpt>
      <trkpt lat="50.662906" lon="6.462258">
        <ele>237.102000</ele>
        <time>2008-10-24T00:21:36Z</time>
      </trkpt>
      <trkpt lat="50.662858" lon="6.462216">
        <ele>237.102000</ele>
        <time>2008-10-24T00:21:41Z</time>
      </trkpt>
      <trkpt lat="50.662738" lon="6.462178">
        <ele>237.102000</ele>
        <time>2008-10-24T00:21:52Z</time>
      </trkpt>
      <trkpt lat="50.662695" lon="6.461987">
        <ele>236.622000</ele>
        <time>2008-10-24T00:22:03Z</time>
      </trkpt>
      <trkpt lat="50.662552" lon="6.461784">
        <ele>234.699000</ele>
        <time>2008-10-24T00:22:20Z</time>
      </trkpt>
      <trkpt lat="50.662373" lon="6.462118">
        <ele>234.218000</ele>
        <time>2008-10-24T00:22:45Z</time>
      </trkpt>
      <trkpt lat="50.662340" lon="6.462289">
        <ele>231.334000</ele>
        <time>2008-10-24T00:22:55Z</time>
      </trkpt>
      <trkpt lat="50.662420" lon="6.462605">
        <ele>228.450000</ele>
        <time>2008-10-24T00:23:14Z</time>
      </trkpt>
      <trkpt lat="50.662456" lon="6.462707">
        <ele>225.086000</ele>
        <time>2008-10-24T00:23:20Z</time>
      </trkpt>
      <trkpt lat="50.662488" lon="6.462865">
        <ele>221.721000</ele>
        <time>2008-10-24T00:23:30Z</time>
      </trkpt>
      <trkpt lat="50.662599" lon="6.463213">
        <ele>219.318000</ele>
        <time>2008-10-24T00:23:52Z</time>
      </trkpt>
      <trkpt lat="50.662628" lon="6.463306">
        <ele>216.434000</ele>
        <time>2008-10-24T00:23:57Z</time>
      </trkpt>
      <trkpt lat="50.662645" lon="6.463346">
        <ele>214.511000</ele>
        <time>2008-10-24T00:24:00Z</time>
      </trkpt>
      <trkpt lat="50.662742" lon="6.463769">
        <ele>213.069000</ele>
        <time>2008-10-24T00:24:25Z</time>
      </trkpt>
      <trkpt lat="50.662763" lon="6.463923">
        <ele>210.185000</ele>
        <time>2008-10-24T00:24:34Z</time>
      </trkpt>
      <trkpt lat="50.662751" lon="6.463923">
        <ele>209.705000</ele>
        <time>2008-10-24T00:24:35Z</time>
      </trkpt>
      <trkpt lat="50.662858" lon="6.464064">
        <ele>206.821000</ele>
        <time>2008-10-24T00:24:47Z</time>
      </trkpt>
      <trkpt lat="50.662887" lon="6.464141">
        <ele>203.456000</ele>
        <time>2008-10-24T00:24:52Z</time>
      </trkpt>
      <trkpt lat="50.662926" lon="6.464305">
        <ele>200.572000</ele>
        <time>2008-10-24T00:25:02Z</time>
      </trkpt>
      <trkpt lat="50.663040" lon="6.464363">
        <ele>197.688000</ele>
        <time>2008-10-24T00:25:13Z</time>
      </trkpt>
      <trkpt lat="50.663095" lon="6.464462">
        <ele>195.766000</ele>
        <time>2008-10-24T00:25:20Z</time>
      </trkpt>
      <trkpt lat="50.663110" lon="6.464570">
        <ele>194.324000</ele>
        <time>2008-10-24T00:25:26Z</time>
      </trkpt>
      <trkpt lat="50.662817" lon="6.464867">
        <ele>192.401000</ele>
        <time>2008-10-24T00:25:57Z</time>
      </trkpt>
      <trkpt lat="50.662756" lon="6.464921">
        <ele>193.362000</ele>
        <time>2008-10-24T00:26:03Z</time>
      </trkpt>
      <trkpt lat="50.662521" lon="6.465227">
        <ele>193.843000</ele>
        <time>2008-10-24T00:26:30Z</time>
      </trkpt>
      <trkpt lat="50.662375" lon="6.465370">
        <ele>193.362000</ele>
        <time>2008-10-24T00:26:46Z</time>
      </trkpt>
      <trkpt lat="50.662259" lon="6.465420">
        <ele>193.843000</ele>
        <time>2008-10-24T00:26:56Z</time>
      </trkpt>
      <trkpt lat="50.662100" lon="6.465182">
        <ele>193.362000</ele>
        <time>2008-10-24T00:27:16Z</time>
      </trkpt>
      <trkpt lat="50.661758" lon="6.465061">
        <ele>196.727000</ele>
        <time>2008-10-24T00:27:47Z</time>
      </trkpt>
      <trkpt lat="50.661596" lon="6.465127">
        <ele>196.246000</ele>
        <time>2008-10-24T00:28:01Z</time>
      </trkpt>
      <trkpt lat="50.661591" lon="6.465125">
        <ele>195.766000</ele>
        <time>2008-10-24T00:28:02Z</time>
      </trkpt>
      <trkpt lat="50.661536" lon="6.465050">
        <ele>193.843000</ele>
        <time>2008-10-24T00:28:08Z</time>
      </trkpt>
      <trkpt lat="50.661556" lon="6.465088">
        <ele>194.804000</ele>
        <time>2008-10-24T00:28:11Z</time>
      </trkpt>
      <trkpt lat="50.661565" lon="6.465146">
        <ele>193.843000</ele>
        <time>2008-10-24T00:28:14Z</time>
      </trkpt>
      <trkpt lat="50.661436" lon="6.465383">
        <ele>192.882000</ele>
        <time>2008-10-24T00:28:32Z</time>
      </trkpt>
      <trkpt lat="50.661309" lon="6.465617">
        <ele>192.882000</ele>
        <time>2008-10-24T00:28:49Z</time>
      </trkpt>
      <trkpt lat="50.661177" lon="6.465825">
        <ele>194.324000</ele>
        <time>2008-10-24T00:29:06Z</time>
      </trkpt>
      <trkpt lat="50.661047" lon="6.466072">
        <ele>194.324000</ele>
        <time>2008-10-24T00:29:24Z</time>
      </trkpt>
      <trkpt lat="50.660894" lon="6.466320">
        <ele>192.882000</ele>
        <time>2008-10-24T00:29:43Z</time>
      </trkpt>
      <trkpt lat="50.660742" lon="6.466579">
        <ele>193.843000</ele>
        <time>2008-10-24T00:30:03Z</time>
      </trkpt>
      <trkpt lat="50.660677" lon="6.466745">
        <ele>192.882000</ele>
        <time>2008-10-24T00:30:14Z</time>
      </trkpt>
      <trkpt lat="50.660600" lon="6.466912">
        <ele>193.362000</ele>
        <time>2008-10-24T00:30:25Z</time>
      </trkpt>
      <trkpt lat="50.660512" lon="6.467225">
        <ele>193.362000</ele>
        <time>2008-10-24T00:30:45Z</time>
      </trkpt>
      <trkpt lat="50.660439" lon="6.467546">
        <ele>193.362000</ele>
        <time>2008-10-24T00:31:04Z</time>
      </trkpt>
      <trkpt lat="50.660389" lon="6.467858">
        <ele>193.843000</ele>
        <time>2008-10-24T00:31:22Z</time>
      </trkpt>
      <trkpt lat="50.660312" lon="6.468183">
        <ele>193.843000</ele>
        <time>2008-10-24T00:31:41Z</time>
      </trkpt>
      <trkpt lat="50.660272" lon="6.468468">
        <ele>193.362000</ele>
        <time>2008-10-24T00:31:57Z</time>
      </trkpt>
      <trkpt lat="50.660231" lon="6.468823">
        <ele>193.843000</ele>
        <time>2008-10-24T00:32:18Z</time>
      </trkpt>
      <trkpt lat="50.660209" lon="6.469108">
        <ele>194.324000</ele>
        <time>2008-10-24T00:32:34Z</time>
      </trkpt>
      <trkpt lat="50.660181" lon="6.469394">
        <ele>194.324000</ele>
        <time>2008-10-24T00:32:50Z</time>
      </trkpt>
      <trkpt lat="50.660185" lon="6.469671">
        <ele>194.804000</ele>
        <time>2008-10-24T00:33:05Z</time>
      </trkpt>
      <trkpt lat="50.660199" lon="6.470015">
        <ele>193.843000</ele>
        <time>2008-10-24T00:33:25Z</time>
      </trkpt>
      <trkpt lat="50.660260" lon="6.470276">
        <ele>194.324000</ele>
        <time>2008-10-24T00:33:40Z</time>
      </trkpt>
      <trkpt lat="50.660303" lon="6.470571">
        <ele>193.843000</ele>
        <time>2008-10-24T00:33:57Z</time>
      </trkpt>
      <trkpt lat="50.660349" lon="6.470900">
        <ele>193.362000</ele>
        <time>2008-10-24T00:34:16Z</time>
      </trkpt>
      <trkpt lat="50.660350" lon="6.471213">
        <ele>193.843000</ele>
        <time>2008-10-24T00:34:34Z</time>
      </trkpt>
      <trkpt lat="50.660321" lon="6.471358">
        <ele>193.843000</ele>
        <time>2008-10-24T00:34:42Z</time>
      </trkpt>
      <trkpt lat="50.660314" lon="6.471620">
        <ele>193.843000</ele>
        <time>2008-10-24T00:34:57Z</time>
      </trkpt>
      <trkpt lat="50.660294" lon="6.471670">
        <ele>193.843000</ele>
        <time>2008-10-24T00:35:00Z</time>
      </trkpt>
      <trkpt lat="50.660211" lon="6.471910">
        <ele>194.324000</ele>
        <time>2008-10-24T00:35:16Z</time>
      </trkpt>
      <trkpt lat="50.660125" lon="6.472220">
        <ele>195.285000</ele>
        <time>2008-10-24T00:35:35Z</time>
      </trkpt>
      <trkpt lat="50.660118" lon="6.472571">
        <ele>194.804000</ele>
        <time>2008-10-24T00:35:54Z</time>
      </trkpt>
      <trkpt lat="50.660097" lon="6.472915">
        <ele>193.362000</ele>
        <time>2008-10-24T00:36:14Z</time>
      </trkpt>
      <trkpt lat="50.660109" lon="6.473061">
        <ele>193.362000</ele>
        <time>2008-10-24T00:36:22Z</time>
      </trkpt>
      <trkpt lat="50.660115" lon="6.473372">
        <ele>193.843000</ele>
        <time>2008-10-24T00:36:39Z</time>
      </trkpt>
      <trkpt lat="50.660106" lon="6.473396">
        <ele>193.843000</ele>
        <time>2008-10-24T00:36:41Z</time>
      </trkpt>
      <trkpt lat="50.660108" lon="6.473573">
        <ele>195.285000</ele>
        <time>2008-10-24T00:36:51Z</time>
      </trkpt>
      <trkpt lat="50.660101" lon="6.473865">
        <ele>195.285000</ele>
        <time>2008-10-24T00:37:07Z</time>
      </trkpt>
      <trkpt lat="50.660122" lon="6.474197">
        <ele>196.246000</ele>
        <time>2008-10-24T00:37:26Z</time>
      </trkpt>
      <trkpt lat="50.660094" lon="6.474470">
        <ele>195.766000</ele>
        <time>2008-10-24T00:37:41Z</time>
      </trkpt>
      <trkpt lat="50.660027" lon="6.474659">
        <ele>195.766000</ele>
        <time>2008-10-24T00:37:54Z</time>
      </trkpt>
      <trkpt lat="50.659940" lon="6.474827">
        <ele>195.766000</ele>
        <time>2008-10-24T00:38:06Z</time>
      </trkpt>
      <trkpt lat="50.659797" lon="6.475096">
        <ele>195.285000</ele>
        <time>2008-10-24T00:38:25Z</time>
      </trkpt>
      <trkpt lat="50.659754" lon="6.475194">
        <ele>194.324000</ele>
        <time>2008-10-24T00:38:32Z</time>
      </trkpt>
      <trkpt lat="50.659628" lon="6.475467">
        <ele>195.285000</ele>
        <time>2008-10-24T00:38:51Z</time>
      </trkpt>
      <trkpt lat="50.659571" lon="6.475604">
        <ele>195.766000</ele>
        <time>2008-10-24T00:39:00Z</time>
      </trkpt>
      <trkpt lat="50.659446" lon="6.475907">
        <ele>196.727000</ele>
        <time>2008-10-24T00:39:20Z</time>
      </trkpt>
      <trkpt lat="50.659404" lon="6.476020">
        <ele>197.208000</ele>
        <time>2008-10-24T00:39:28Z</time>
      </trkpt>
      <trkpt lat="50.659342" lon="6.476155">
        <ele>197.688000</ele>
        <time>2008-10-24T00:39:37Z</time>
      </trkpt>
      <trkpt lat="50.659232" lon="6.476424">
        <ele>198.169000</ele>
        <time>2008-10-24T00:39:55Z</time>
      </trkpt>
      <trkpt lat="50.659220" lon="6.476478">
        <ele>198.650000</ele>
        <time>2008-10-24T00:39:58Z</time>
      </trkpt>
      <trkpt lat="50.659124" lon="6.476718">
        <ele>198.650000</ele>
        <time>2008-10-24T00:40:14Z</time>
      </trkpt>
      <trkpt lat="50.659063" lon="6.476968">
        <ele>198.650000</ele>
        <time>2008-10-24T00:40:29Z</time>
      </trkpt>
      <trkpt lat="50.658986" lon="6.477212">
        <ele>199.130000</ele>
        <time>2008-10-24T00:40:44Z</time>
      </trkpt>
      <trkpt lat="50.658992" lon="6.477282">
        <ele>199.611000</ele>
        <time>2008-10-24T00:40:48Z</time>
      </trkpt>
      <trkpt lat="50.658927" lon="6.477536">
        <ele>199.611000</ele>
        <time>2008-10-24T00:41:04Z</time>
      </trkpt>
      <trkpt lat="50.658921" lon="6.477595">
        <ele>200.092000</ele>
        <time>2008-10-24T00:41:07Z</time>
      </trkpt>
      <trkpt lat="50.658870" lon="6.477909">
        <ele>200.572000</ele>
        <time>2008-10-24T00:41:25Z</time>
      </trkpt>
      <trkpt lat="50.658863" lon="6.477974">
        <ele>200.092000</ele>
        <time>2008-10-24T00:41:29Z</time>
      </trkpt>
      <trkpt lat="50.658903" lon="6.478226">
        <ele>200.572000</ele>
        <time>2008-10-24T00:41:44Z</time>
      </trkpt>
      <trkpt lat="50.658940" lon="6.478495">
        <ele>201.053000</ele>
        <time>2008-10-24T00:41:59Z</time>
      </trkpt>
      <trkpt lat="50.658941" lon="6.478583">
        <ele>200.092000</ele>
        <time>2008-10-24T00:42:04Z</time>
      </trkpt>
      <trkpt lat="50.658941" lon="6.478610">
        <ele>200.572000</ele>
        <time>2008-10-24T00:42:05Z</time>
      </trkpt>
      <trkpt lat="50.658924" lon="6.478767">
        <ele>200.092000</ele>
        <time>2008-10-24T00:42:14Z</time>
      </trkpt>
      <trkpt lat="50.658955" lon="6.478997">
        <ele>199.611000</ele>
        <time>2008-10-24T00:42:28Z</time>
      </trkpt>
      <trkpt lat="50.659093" lon="6.479221">
        <ele>198.650000</ele>
        <time>2008-10-24T00:42:45Z</time>
      </trkpt>
      <trkpt lat="50.659199" lon="6.479307">
        <ele>198.169000</ele>
        <time>2008-10-24T00:42:56Z</time>
      </trkpt>
      <trkpt lat="50.659292" lon="6.479437">
        <ele>198.169000</ele>
        <time>2008-10-24T00:43:07Z</time>
      </trkpt>
      <trkpt lat="50.659305" lon="6.479466">
        <ele>198.169000</ele>
        <time>2008-10-24T00:43:09Z</time>
      </trkpt>
      <trkpt lat="50.659392" lon="6.479546">
        <ele>198.169000</ele>
        <time>2008-10-24T00:43:17Z</time>
      </trkpt>
      <trkpt lat="50.659518" lon="6.479687">
        <ele>197.208000</ele>
        <time>2008-10-24T00:43:31Z</time>
      </trkpt>
      <trkpt lat="50.659558" lon="6.479720">
        <ele>197.208000</ele>
        <time>2008-10-24T00:43:35Z</time>
      </trkpt>
      <trkpt lat="50.659689" lon="6.479879">
        <ele>197.208000</ele>
        <time>2008-10-24T00:43:50Z</time>
      </trkpt>
      <trkpt lat="50.659756" lon="6.479935">
        <ele>196.727000</ele>
        <time>2008-10-24T00:43:56Z</time>
      </trkpt>
      <trkpt lat="50.659886" lon="6.480138">
        <ele>197.208000</ele>
        <time>2008-10-24T00:44:13Z</time>
      </trkpt>
      <trkpt lat="50.660050" lon="6.480250">
        <ele>195.766000</ele>
        <time>2008-10-24T00:44:28Z</time>
      </trkpt>
      <trkpt lat="50.660092" lon="6.480298">
        <ele>196.246000</ele>
        <time>2008-10-24T00:44:33Z</time>
      </trkpt>
      <trkpt lat="50.660133" lon="6.480334">
        <ele>196.246000</ele>
        <time>2008-10-24T00:44:37Z</time>
      </trkpt>
      <trkpt lat="50.660171" lon="6.480475">
        <ele>195.285000</ele>
        <time>2008-10-24T00:44:46Z</time>
      </trkpt>
      <trkpt lat="50.660041" lon="6.480811">
        <ele>195.766000</ele>
        <time>2008-10-24T00:45:08Z</time>
      </trkpt>
      <trkpt lat="50.659905" lon="6.480936">
        <ele>196.246000</ele>
        <time>2008-10-24T00:45:22Z</time>
      </trkpt>
      <trkpt lat="50.659809" lon="6.480984">
        <ele>195.766000</ele>
        <time>2008-10-24T00:45:31Z</time>
      </trkpt>
      <trkpt lat="50.659639" lon="6.481044">
        <ele>195.766000</ele>
        <time>2008-10-24T00:45:46Z</time>
      </trkpt>
      <trkpt lat="50.659614" lon="6.481077">
        <ele>195.766000</ele>
        <time>2008-10-24T00:45:49Z</time>
      </trkpt>
      <trkpt lat="50.659490" lon="6.481240">
        <ele>196.246000</ele>
        <time>2008-10-24T00:46:03Z</time>
      </trkpt>
      <trkpt lat="50.659396" lon="6.481522">
        <ele>197.688000</ele>
        <time>2008-10-24T00:46:21Z</time>
      </trkpt>
      <trkpt lat="50.659366" lon="6.481550">
        <ele>197.688000</ele>
        <time>2008-10-24T00:46:24Z</time>
      </trkpt>
      <trkpt lat="50.659288" lon="6.481781">
        <ele>198.650000</ele>
        <time>2008-10-24T00:46:39Z</time>
      </trkpt>
      <trkpt lat="50.659248" lon="6.482028">
        <ele>199.611000</ele>
        <time>2008-10-24T00:46:53Z</time>
      </trkpt>
      <trkpt lat="50.659198" lon="6.482224">
        <ele>200.092000</ele>
        <time>2008-10-24T00:47:05Z</time>
      </trkpt>
      <trkpt lat="50.659171" lon="6.482392">
        <ele>201.053000</ele>
        <time>2008-10-24T00:47:15Z</time>
      </trkpt>
      <trkpt lat="50.659159" lon="6.482443">
        <ele>201.534000</ele>
        <time>2008-10-24T00:47:18Z</time>
      </trkpt>
      <trkpt lat="50.659141" lon="6.482528">
        <ele>201.534000</ele>
        <time>2008-10-24T00:47:23Z</time>
      </trkpt>
      <trkpt lat="50.659080" lon="6.482650">
        <ele>202.014000</ele>
        <time>2008-10-24T00:47:31Z</time>
      </trkpt>
      <trkpt lat="50.658921" lon="6.482847">
        <ele>202.014000</ele>
        <time>2008-10-24T00:47:49Z</time>
      </trkpt>
      <trkpt lat="50.658822" lon="6.482945">
        <ele>202.495000</ele>
        <time>2008-10-24T00:48:00Z</time>
      </trkpt>
      <trkpt lat="50.658655" lon="6.483120">
        <ele>202.975000</ele>
        <time>2008-10-24T00:48:17Z</time>
      </trkpt>
      <trkpt lat="50.658542" lon="6.483279">
        <ele>203.456000</ele>
        <time>2008-10-24T00:48:31Z</time>
      </trkpt>
      <trkpt lat="50.658406" lon="6.483477">
        <ele>202.975000</ele>
        <time>2008-10-24T00:48:47Z</time>
      </trkpt>
      <trkpt lat="50.658317" lon="6.483596">
        <ele>202.975000</ele>
        <time>2008-10-24T00:48:57Z</time>
      </trkpt>
      <trkpt lat="50.658154" lon="6.483729">
        <ele>202.975000</ele>
        <time>2008-10-24T00:49:14Z</time>
      </trkpt>
      <trkpt lat="50.658148" lon="6.483745">
        <ele>203.456000</ele>
        <time>2008-10-24T00:49:15Z</time>
      </trkpt>
      <trkpt lat="50.658136" lon="6.483757">
        <ele>202.975000</ele>
        <time>2008-10-24T00:49:16Z</time>
      </trkpt>
      <trkpt lat="50.657933" lon="6.483979">
        <ele>203.937000</ele>
        <time>2008-10-24T00:49:38Z</time>
      </trkpt>
      <trkpt lat="50.657775" lon="6.484135">
        <ele>204.417000</ele>
        <time>2008-10-24T00:49:54Z</time>
      </trkpt>
      <trkpt lat="50.657636" lon="6.484372">
        <ele>204.898000</ele>
        <time>2008-10-24T00:50:12Z</time>
      </trkpt>
      <trkpt lat="50.657496" lon="6.484564">
        <ele>205.859000</ele>
        <time>2008-10-24T00:50:29Z</time>
      </trkpt>
      <trkpt lat="50.657442" lon="6.484674">
        <ele>204.898000</ele>
        <time>2008-10-24T00:50:37Z</time>
      </trkpt>
      <trkpt lat="50.657272" lon="6.484904">
        <ele>207.301000</ele>
        <time>2008-10-24T00:50:56Z</time>
      </trkpt>
      <trkpt lat="50.657096" lon="6.485171">
        <ele>208.263000</ele>
        <time>2008-10-24T00:51:18Z</time>
      </trkpt>
      <trkpt lat="50.657048" lon="6.485205">
        <ele>208.263000</ele>
        <time>2008-10-24T00:51:23Z</time>
      </trkpt>
      <trkpt lat="50.657014" lon="6.485224">
        <ele>210.185000</ele>
        <time>2008-10-24T00:51:26Z</time>
      </trkpt>
      <trkpt lat="50.656982" lon="6.485259">
        <ele>209.705000</ele>
        <time>2008-10-24T00:51:29Z</time>
      </trkpt>
      <trkpt lat="50.656927" lon="6.485306">
        <ele>211.147000</ele>
        <time>2008-10-24T00:51:35Z</time>
      </trkpt>
      <trkpt lat="50.656697" lon="6.485332">
        <ele>212.108000</ele>
        <time>2008-10-24T00:51:55Z</time>
      </trkpt>
      <trkpt lat="50.656487" lon="6.485313">
        <ele>213.069000</ele>
        <time>2008-10-24T00:52:14Z</time>
      </trkpt>
      <trkpt lat="50.656234" lon="6.485355">
        <ele>212.589000</ele>
        <time>2008-10-24T00:52:36Z</time>
      </trkpt>
      <trkpt lat="50.656053" lon="6.485536">
        <ele>212.589000</ele>
        <time>2008-10-24T00:52:55Z</time>
      </trkpt>
      <trkpt lat="50.656033" lon="6.485588">
        <ele>213.550000</ele>
        <time>2008-10-24T00:52:59Z</time>
      </trkpt>
      <trkpt lat="50.655949" lon="6.485856">
        <ele>215.473000</ele>
        <time>2008-10-24T00:53:15Z</time>
      </trkpt>
      <trkpt lat="50.655882" lon="6.486080">
        <ele>216.434000</ele>
        <time>2008-10-24T00:53:29Z</time>
      </trkpt>
      <trkpt lat="50.655796" lon="6.486333">
        <ele>216.915000</ele>
        <time>2008-10-24T00:53:45Z</time>
      </trkpt>
      <trkpt lat="50.655748" lon="6.486555">
        <ele>216.434000</ele>
        <time>2008-10-24T00:53:58Z</time>
      </trkpt>
      <trkpt lat="50.655743" lon="6.486587">
        <ele>216.915000</ele>
        <time>2008-10-24T00:54:00Z</time>
      </trkpt>
      <trkpt lat="50.655699" lon="6.486740">
        <ele>217.395000</ele>
        <time>2008-10-24T00:54:10Z</time>
      </trkpt>
      <trkpt lat="50.655597" lon="6.487029">
        <ele>215.473000</ele>
        <time>2008-10-24T00:54:28Z</time>
      </trkpt>
      <trkpt lat="50.655479" lon="6.487351">
        <ele>218.357000</ele>
        <time>2008-10-24T00:54:49Z</time>
      </trkpt>
      <trkpt lat="50.655345" lon="6.487644">
        <ele>217.395000</ele>
        <time>2008-10-24T00:55:09Z</time>
      </trkpt>
      <trkpt lat="50.655290" lon="6.487808">
        <ele>218.357000</ele>
        <time>2008-10-24T00:55:20Z</time>
      </trkpt>
      <trkpt lat="50.655216" lon="6.487935">
        <ele>217.395000</ele>
        <time>2008-10-24T00:55:29Z</time>
      </trkpt>
      <trkpt lat="50.655086" lon="6.488204">
        <ele>217.395000</ele>
        <time>2008-10-24T00:55:48Z</time>
      </trkpt>
      <trkpt lat="50.654979" lon="6.488405">
        <ele>215.953000</ele>
        <time>2008-10-24T00:56:03Z</time>
      </trkpt>
      <trkpt lat="50.654885" lon="6.488557">
        <ele>212.108000</ele>
        <time>2008-10-24T00:56:15Z</time>
      </trkpt>
      <trkpt lat="50.654870" lon="6.488581">
        <ele>211.627000</ele>
        <time>2008-10-24T00:56:17Z</time>
      </trkpt>
      <trkpt lat="50.654647" lon="6.488690">
        <ele>210.666000</ele>
        <time>2008-10-24T00:56:38Z</time>
      </trkpt>
      <trkpt lat="50.654534" lon="6.488852">
        <ele>208.263000</ele>
        <time>2008-10-24T00:56:51Z</time>
      </trkpt>
      <trkpt lat="50.654451" lon="6.489116">
        <ele>204.898000</ele>
        <time>2008-10-24T00:57:08Z</time>
      </trkpt>
      <trkpt lat="50.654418" lon="6.489308">
        <ele>202.014000</ele>
        <time>2008-10-24T00:57:19Z</time>
      </trkpt>
      <trkpt lat="50.654423" lon="6.489493">
        <ele>200.092000</ele>
        <time>2008-10-24T00:57:29Z</time>
      </trkpt>
      <trkpt lat="50.654422" lon="6.489630">
        <ele>201.053000</ele>
        <time>2008-10-24T00:57:37Z</time>
      </trkpt>
      <trkpt lat="50.654407" lon="6.489850">
        <ele>199.130000</ele>
        <time>2008-10-24T00:57:49Z</time>
      </trkpt>
      <trkpt lat="50.654425" lon="6.490077">
        <ele>196.727000</ele>
        <time>2008-10-24T00:58:02Z</time>
      </trkpt>
      <trkpt lat="50.654405" lon="6.490364">
        <ele>196.727000</ele>
        <time>2008-10-24T00:58:18Z</time>
      </trkpt>
      <trkpt lat="50.654411" lon="6.490417">
        <ele>195.285000</ele>
        <time>2008-10-24T00:58:21Z</time>
      </trkpt>
      <trkpt lat="50.654345" lon="6.490698">
        <ele>194.804000</ele>
        <time>2008-10-24T00:58:38Z</time>
      </trkpt>
      <trkpt lat="50.654303" lon="6.490991">
        <ele>193.843000</ele>
        <time>2008-10-24T00:58:55Z</time>
      </trkpt>
      <trkpt lat="50.654282" lon="6.491042">
        <ele>193.843000</ele>
        <time>2008-10-24T00:58:58Z</time>
      </trkpt>
      <trkpt lat="50.654192" lon="6.491388">
        <ele>193.362000</ele>
        <time>2008-10-24T00:59:19Z</time>
      </trkpt>
      <trkpt lat="50.654123" lon="6.491658">
        <ele>193.843000</ele>
        <time>2008-10-24T00:59:36Z</time>
      </trkpt>
      <trkpt lat="50.654052" lon="6.491908">
        <ele>193.843000</ele>
        <time>2008-10-24T00:59:51Z</time>
      </trkpt>
      <trkpt lat="50.654010" lon="6.492044">
        <ele>195.285000</ele>
        <time>2008-10-24T00:59:59Z</time>
      </trkpt>
      <trkpt lat="50.653829" lon="6.492170">
        <ele>195.285000</ele>
        <time>2008-10-24T01:00:17Z</time>
      </trkpt>
      <trkpt lat="50.653665" lon="6.492152">
        <ele>195.766000</ele>
        <time>2008-10-24T01:00:31Z</time>
      </trkpt>
      <trkpt lat="50.653630" lon="6.492125">
        <ele>195.285000</ele>
        <time>2008-10-24T01:00:35Z</time>
      </trkpt>
      <trkpt lat="50.653541" lon="6.492149">
        <ele>193.843000</ele>
        <time>2008-10-24T01:00:43Z</time>
      </trkpt>
      <trkpt lat="50.653339" lon="6.492279">
        <ele>193.843000</ele>
        <time>2008-10-24T01:01:02Z</time>
      </trkpt>
      <trkpt lat="50.653327" lon="6.492282">
        <ele>193.843000</ele>
        <time>2008-10-24T01:01:03Z</time>
      </trkpt>
      <trkpt lat="50.653234" lon="6.492319">
        <ele>193.362000</ele>
        <time>2008-10-24T01:01:12Z</time>
      </trkpt>
      <trkpt lat="50.653090" lon="6.492450">
        <ele>192.882000</ele>
        <time>2008-10-24T01:01:26Z</time>
      </trkpt>
      <trkpt lat="50.653071" lon="6.492482">
        <ele>193.362000</ele>
        <time>2008-10-24T01:01:29Z</time>
      </trkpt>
      <trkpt lat="50.653050" lon="6.492505">
        <ele>193.362000</ele>
        <time>2008-10-24T01:01:31Z</time>
      </trkpt>
      <trkpt lat="50.652995" lon="6.492516">
        <ele>193.362000</ele>
        <time>2008-10-24T01:01:36Z</time>
      </trkpt>
      <trkpt lat="50.652876" lon="6.492496">
        <ele>193.843000</ele>
        <time>2008-10-24T01:01:47Z</time>
      </trkpt>
      <trkpt lat="50.652880" lon="6.492429">
        <ele>194.324000</ele>
        <time>2008-10-24T01:01:50Z</time>
      </trkpt>
      <trkpt lat="50.652798" lon="6.492165">
        <ele>194.324000</ele>
        <time>2008-10-24T01:02:07Z</time>
      </trkpt>
    </trkseg>
  </trk>

</gpx>
